<?xml version='1.0' encoding='UTF-8'?><gpx version="1.1" creator="JPX - https://github.com/jenetics/jpx" xmlns="http://www.topografix.com/GPX/1/1"><trk><trkseg><trkpt lat="49.1365275651384" lon="2.5071177902856996"><ele>75.33333333333333</ele><time>2026-04-16T09:54:56.242Z</time></trkpt><trkpt lat="49.136592620258334" lon="2.5070843823972515"><ele>75.66666666666667</ele><time>2026-04-16T09:54:58.242Z</time></trkpt><trkpt lat="49.13667074391917" lon="2.5070568122282566"><ele>76.0</ele><time>2026-04-16T09:55:05.242Z</time></trkpt><trkpt lat="49.13674960936085" lon="2.5070374168703227"><ele>76.33333333333334</ele><time>2026-04-16T09:55:09.242Z</time></trkpt><trkpt lat="49.1368113520754" lon="2.506994190839186"><ele>76.66666666666667</ele><time>2026-04-16T09:55:12.242Z</time></trkpt><trkpt lat="49.136893932994425" lon="2.506978754721716"><ele>77.0</ele><time>2026-04-16T09:55:16.242Z</time></trkpt><trkpt lat="49.136986553672365" lon="2.50696565995683"><ele>77.2</ele><time>2026-04-16T09:55:20.241Z</time></trkpt><trkpt lat="49.137124329104104" lon="2.5069448355919266"><ele>77.4</ele><time>2026-04-16T09:55:24.241Z</time></trkpt><trkpt lat="49.13729732039568" lon="2.5069195340379022"><ele>77.6</ele><time>2026-04-16T09:55:27.241Z</time></trkpt><trkpt lat="49.137363621772245" lon="2.5068998283774406"><ele>77.8</ele><time>2026-04-16T09:55:28.992Z</time></trkpt><trkpt lat="49.137430495080295" lon="2.506904768406736"><ele>78.0</ele><time>2026-04-16T09:55:31.992Z</time></trkpt><trkpt lat="49.13751366026708" lon="2.506981081953692"><ele>78.0</ele><time>2026-04-16T09:55:33.992Z</time></trkpt><trkpt lat="49.13756260653175" lon="2.5070722348427816"><ele>78.0</ele><time>2026-04-16T09:55:36.992Z</time></trkpt><trkpt lat="49.137612897487486" lon="2.5071434960037093"><ele>78.0</ele><time>2026-04-16T09:55:39.992Z</time></trkpt><trkpt lat="49.13767169307618" lon="2.507213400107051"><ele>78.0</ele><time>2026-04-16T09:55:42.992Z</time></trkpt><trkpt lat="49.137750893284014" lon="2.5072709179131283"><ele>78.0</ele><time>2026-04-16T09:55:45.992Z</time></trkpt><trkpt lat="49.13781158832805" lon="2.5073367599699448"><ele>78.0</ele><time>2026-04-16T09:55:48.992Z</time></trkpt><trkpt lat="49.13787784170156" lon="2.507383734342502"><ele>78.33333333333333</ele><time>2026-04-16T09:55:54.991Z</time></trkpt><trkpt lat="49.13803650045222" lon="2.5074421863288388"><ele>78.66666666666667</ele><time>2026-04-16T09:56:21.991Z</time></trkpt><trkpt lat="49.13810147391796" lon="2.5074853759964157"><ele>79.0</ele><time>2026-04-16T09:56:24.99Z</time></trkpt><trkpt lat="49.138184051752404" lon="2.5074596011514387"><ele>79.33333333333334</ele><time>2026-04-16T09:56:28.99Z</time></trkpt><trkpt lat="49.13824614624561" lon="2.5074412793873244"><ele>79.66666666666667</ele><time>2026-04-16T09:56:30.99Z</time></trkpt><trkpt lat="49.138303701683576" lon="2.5074857214133246"><ele>80.0</ele><time>2026-04-16T09:56:34.99Z</time></trkpt><trkpt lat="49.13835558109363" lon="2.507544777761516"><ele>79.14285714285714</ele><time>2026-04-16T09:56:38.99Z</time></trkpt><trkpt lat="49.138419415331036" lon="2.507525360345005"><ele>78.28571428571429</ele><time>2026-04-16T09:56:41.99Z</time></trkpt><trkpt lat="49.13848485504436" lon="2.507475571799377"><ele>77.42857142857143</ele><time>2026-04-16T09:56:44.99Z</time></trkpt><trkpt lat="49.13855782472831" lon="2.5074099809358743"><ele>76.57142857142857</ele><time>2026-04-16T09:56:48.99Z</time></trkpt><trkpt lat="49.138616370089956" lon="2.5073469488279794"><ele>75.71428571428571</ele><time>2026-04-16T09:56:51.99Z</time></trkpt><trkpt lat="49.138671786267956" lon="2.5072711403359635"><ele>74.85714285714286</ele><time>2026-04-16T09:56:54.99Z</time></trkpt><trkpt lat="49.138734615761386" lon="2.5072143875666586"><ele>74.0</ele><time>2026-04-16T09:56:58.989Z</time></trkpt><trkpt lat="49.13879455090822" lon="2.5071781020753465"><ele>74.0</ele><time>2026-04-16T09:57:02.989Z</time></trkpt><trkpt lat="49.138856282447826" lon="2.507125795689302"><ele>74.0</ele><time>2026-04-16T09:57:07.994Z</time></trkpt><trkpt lat="49.13891102094149" lon="2.5070468431325446"><ele>74.0</ele><time>2026-04-16T09:57:11.995Z</time></trkpt><trkpt lat="49.1389576400383" lon="2.5069503748931345"><ele>74.0</ele><time>2026-04-16T09:57:15.996Z</time></trkpt><trkpt lat="49.1389977745923" lon="2.5068713731024457"><ele>74.0</ele><time>2026-04-16T09:57:19.997Z</time></trkpt><trkpt lat="49.139036065702406" lon="2.506755398799004"><ele>74.0</ele><time>2026-04-16T09:57:23.998Z</time></trkpt><trkpt lat="49.13907757755307" lon="2.5066496487404635"><ele>73.85714285714286</ele><time>2026-04-16T09:57:26.998Z</time></trkpt><trkpt lat="49.13910595728998" lon="2.5065411195457092"><ele>73.71428571428571</ele><time>2026-04-16T09:57:29.998Z</time></trkpt><trkpt lat="49.13915961826896" lon="2.506474981640879"><ele>73.57142857142857</ele><time>2026-04-16T09:57:32.998Z</time></trkpt><trkpt lat="49.13919516805902" lon="2.5063928263519237"><ele>73.42857142857143</ele><time>2026-04-16T09:57:35.999Z</time></trkpt><trkpt lat="49.139233097601355" lon="2.5062832909219703"><ele>73.28571428571429</ele><time>2026-04-16T09:57:39.999Z</time></trkpt><trkpt lat="49.139288369789476" lon="2.506209809443295"><ele>73.14285714285714</ele><time>2026-04-16T09:57:42.999Z</time></trkpt><trkpt lat="49.13935656939583" lon="2.506152148831036"><ele>73.0</ele><time>2026-04-16T09:57:46.999Z</time></trkpt><trkpt lat="49.13941318560846" lon="2.506099511828228"><ele>73.0</ele><time>2026-04-16T09:57:49.999Z</time></trkpt><trkpt lat="49.13947767052823" lon="2.5060692336634838"><ele>73.0</ele><time>2026-04-16T09:57:53.999Z</time></trkpt><trkpt lat="49.139537334974804" lon="2.506104654744798"><ele>73.0</ele><time>2026-04-16T09:57:58.999Z</time></trkpt><trkpt lat="49.139611274202586" lon="2.5061403211847266"><ele>73.0</ele><time>2026-04-16T09:58:02.999Z</time></trkpt><trkpt lat="49.13967040527984" lon="2.506175733261395"><ele>73.0</ele><time>2026-04-16T09:58:06.999Z</time></trkpt><trkpt lat="49.13973416076638" lon="2.5062527311647296"><ele>73.0</ele><time>2026-04-16T09:58:10.998Z</time></trkpt><trkpt lat="49.13980830509072" lon="2.506247441974071"><ele>73.0</ele><time>2026-04-16T09:58:14.998Z</time></trkpt><trkpt lat="49.13988139580105" lon="2.5062629226962008"><ele>72.85714285714286</ele><time>2026-04-16T09:58:19.998Z</time></trkpt><trkpt lat="49.139940446261555" lon="2.506314977900989"><ele>72.71428571428572</ele><time>2026-04-16T09:58:23.998Z</time></trkpt><trkpt lat="49.13998973825717" lon="2.5063783001496964"><ele>72.57142857142858</ele><time>2026-04-16T09:58:26.998Z</time></trkpt><trkpt lat="49.14005480115034" lon="2.5064524642191364"><ele>72.42857142857143</ele><time>2026-04-16T09:58:30.998Z</time></trkpt><trkpt lat="49.14012656323941" lon="2.5065296058095807"><ele>72.28571428571429</ele><time>2026-04-16T09:58:34.998Z</time></trkpt><trkpt lat="49.140173755808654" lon="2.5066034099675107"><ele>72.14285714285715</ele><time>2026-04-16T09:58:37.998Z</time></trkpt><trkpt lat="49.140231359127476" lon="2.506685791907365"><ele>72.0</ele><time>2026-04-16T09:58:41.998Z</time></trkpt><trkpt lat="49.14027602689545" lon="2.5067546231958997"><ele>72.00000000000001</ele><time>2026-04-16T09:58:45.998Z</time></trkpt><trkpt lat="49.14031909899812" lon="2.506845577603609"><ele>72.0</ele><time>2026-04-16T09:58:49.997Z</time></trkpt><trkpt lat="49.14038234769029" lon="2.506904227021703"><ele>72.0</ele><time>2026-04-16T09:58:54.997Z</time></trkpt><trkpt lat="49.14045127612103" lon="2.506947109696882"><ele>72.0</ele><time>2026-04-16T09:58:58.997Z</time></trkpt><trkpt lat="49.14051934057871" lon="2.506985670362513"><ele>72.0</ele><time>2026-04-16T09:59:02.997Z</time></trkpt><trkpt lat="49.140563926553" lon="2.5070563945190347"><ele>72.00000000000001</ele><time>2026-04-16T09:59:05.997Z</time></trkpt><trkpt lat="49.14062100190052" lon="2.5071082556771223"><ele>72.0</ele><time>2026-04-16T09:59:09Z</time></trkpt><trkpt lat="49.14068721298654" lon="2.5071088241574846"><ele>71.57142857142858</ele><time>2026-04-16T09:59:12Z</time></trkpt><trkpt lat="49.140759542701204" lon="2.5071001725458912"><ele>71.14285714285714</ele><time>2026-04-16T09:59:15Z</time></trkpt><trkpt lat="49.14082457864871" lon="2.5071016225241314"><ele>70.71428571428572</ele><time>2026-04-16T09:59:19Z</time></trkpt><trkpt lat="49.14089587928926" lon="2.5071135248920315"><ele>70.28571428571429</ele><time>2026-04-16T09:59:22Z</time></trkpt><trkpt lat="49.14097367069259" lon="2.5071099176702076"><ele>69.85714285714286</ele><time>2026-04-16T09:59:26Z</time></trkpt><trkpt lat="49.14103985470657" lon="2.5071160378982147"><ele>69.42857142857143</ele><time>2026-04-16T09:59:29Z</time></trkpt><trkpt lat="49.14110771872966" lon="2.5071135829740765"><ele>69.0</ele><time>2026-04-16T09:59:33Z</time></trkpt><trkpt lat="49.14117163920757" lon="2.507099615371113"><ele>69.0</ele><time>2026-04-16T09:59:36Z</time></trkpt><trkpt lat="49.141237569336916" lon="2.5071047005780334"><ele>69.0</ele><time>2026-04-16T09:59:40Z</time></trkpt><trkpt lat="49.14131267677644" lon="2.5070975486800267"><ele>69.0</ele><time>2026-04-16T09:59:43.999Z</time></trkpt><trkpt lat="49.14139574636702" lon="2.5070910389939223"><ele>69.0</ele><time>2026-04-16T09:59:47.999Z</time></trkpt><trkpt lat="49.14146614534913" lon="2.507119841443844"><ele>69.0</ele><time>2026-04-16T09:59:51.999Z</time></trkpt><trkpt lat="49.141542975728505" lon="2.5071320511116686"><ele>69.0</ele><time>2026-04-16T09:59:55.999Z</time></trkpt><trkpt lat="49.14161741424395" lon="2.5071302560516444"><ele>69.0</ele><time>2026-04-16T10:00:00.999Z</time></trkpt><trkpt lat="49.14168397088355" lon="2.5071314028800784"><ele>69.5</ele><time>2026-04-16T10:00:04.999Z</time></trkpt><trkpt lat="49.14174763041745" lon="2.5072120218800453"><ele>70.0</ele><time>2026-04-16T10:00:10.999Z</time></trkpt><trkpt lat="49.141810097421136" lon="2.50728894820217"><ele>70.5</ele><time>2026-04-16T10:00:14.998Z</time></trkpt><trkpt lat="49.14185685417857" lon="2.507382712704039"><ele>71.0</ele><time>2026-04-16T10:00:19.998Z</time></trkpt><trkpt lat="49.14190949954064" lon="2.507450756126936"><ele>71.5</ele><time>2026-04-16T10:00:24.998Z</time></trkpt><trkpt lat="49.14198434403009" lon="2.5075181238361517"><ele>72.0</ele><time>2026-04-16T10:00:29.998Z</time></trkpt><trkpt lat="49.14203439759888" lon="2.5075784574545756"><ele>72.00000000000001</ele><time>2026-04-16T10:00:32.998Z</time></trkpt><trkpt lat="49.14208309085745" lon="2.5076786139236718"><ele>72.0</ele><time>2026-04-16T10:00:35.998Z</time></trkpt><trkpt lat="49.14211867913622" lon="2.5077674666096526"><ele>72.0</ele><time>2026-04-16T10:00:38.998Z</time></trkpt><trkpt lat="49.142169041118365" lon="2.5078714844115697"><ele>72.0</ele><time>2026-04-16T10:00:41.998Z</time></trkpt><trkpt lat="49.14220098345786" lon="2.507961480166161"><ele>72.0</ele><time>2026-04-16T10:00:44.998Z</time></trkpt><trkpt lat="49.142219652333424" lon="2.5080555163983207"><ele>72.00000000000001</ele><time>2026-04-16T10:00:47.997Z</time></trkpt><trkpt lat="49.142259467202976" lon="2.5081423418174125"><ele>72.0</ele><time>2026-04-16T10:00:50.997Z</time></trkpt><trkpt lat="49.14231655004592" lon="2.508202457962356"><ele>72.14285714285715</ele><time>2026-04-16T10:00:54.997Z</time></trkpt><trkpt lat="49.142371836893226" lon="2.508288185738368"><ele>72.28571428571429</ele><time>2026-04-16T10:00:58.997Z</time></trkpt><trkpt lat="49.1424162228064" lon="2.50837473048987"><ele>72.42857142857143</ele><time>2026-04-16T10:01:02.997Z</time></trkpt><trkpt lat="49.14247970360135" lon="2.5084447133808374"><ele>72.57142857142858</ele><time>2026-04-16T10:01:06.997Z</time></trkpt><trkpt lat="49.142530323942445" lon="2.5085105548441775"><ele>72.71428571428572</ele><time>2026-04-16T10:01:10.997Z</time></trkpt><trkpt lat="49.142585158465394" lon="2.5085586359601453"><ele>72.85714285714286</ele><time>2026-04-16T10:01:13.997Z</time></trkpt><trkpt lat="49.14264361929963" lon="2.508631160225287"><ele>73.0</ele><time>2026-04-16T10:01:17Z</time></trkpt><trkpt lat="49.14268179301691" lon="2.508736602075646"><ele>71.85714285714286</ele><time>2026-04-16T10:01:20Z</time></trkpt><trkpt lat="49.14271988683953" lon="2.5088268571147174"><ele>70.71428571428572</ele><time>2026-04-16T10:01:23Z</time></trkpt><trkpt lat="49.14277728990746" lon="2.508880364198482"><ele>69.57142857142858</ele><time>2026-04-16T10:01:26Z</time></trkpt><trkpt lat="49.14283614995708" lon="2.5088373747930715"><ele>68.42857142857143</ele><time>2026-04-16T10:01:30Z</time></trkpt><trkpt lat="49.142905126399896" lon="2.5088481221403427"><ele>67.28571428571429</ele><time>2026-04-16T10:01:35Z</time></trkpt><trkpt lat="49.142936408851504" lon="2.508949049201864"><ele>66.14285714285715</ele><time>2026-04-16T10:01:39Z</time></trkpt><trkpt lat="49.14299924348957" lon="2.509015471748111"><ele>65.0</ele><time>2026-04-16T10:01:43Z</time></trkpt><trkpt lat="49.143079674931485" lon="2.5090333117812875"><ele>65.00000000000001</ele><time>2026-04-16T10:01:46.999Z</time></trkpt><trkpt lat="49.143144636148854" lon="2.509063967743066"><ele>65.0</ele><time>2026-04-16T10:01:51.999Z</time></trkpt><trkpt lat="49.14320344454107" lon="2.5091192524009203"><ele>65.0</ele><time>2026-04-16T10:01:54.999Z</time></trkpt><trkpt lat="49.143185714107716" lon="2.509225010098862"><ele>65.0</ele><time>2026-04-16T10:01:59.999Z</time></trkpt><trkpt lat="49.143201439952605" lon="2.509346156399119"><ele>65.0</ele><time>2026-04-16T10:02:03.999Z</time></trkpt><trkpt lat="49.14326994479314" lon="2.509366242036577"><ele>65.00000000000001</ele><time>2026-04-16T10:02:06.999Z</time></trkpt><trkpt lat="49.143337704714874" lon="2.509417840268013"><ele>65.0</ele><time>2026-04-16T10:02:10.999Z</time></trkpt><trkpt lat="49.14337091823937" lon="2.5095170007657175"><ele>65.42857142857143</ele><time>2026-04-16T10:02:13.999Z</time></trkpt><trkpt lat="49.143381709918174" lon="2.5096202337249838"><ele>65.85714285714286</ele><time>2026-04-16T10:02:16.998Z</time></trkpt><trkpt lat="49.143438233593244" lon="2.509683288233877"><ele>66.28571428571428</ele><time>2026-04-16T10:02:19.998Z</time></trkpt><trkpt lat="49.14346985955885" lon="2.5097680908207463"><ele>66.71428571428572</ele><time>2026-04-16T10:02:23.998Z</time></trkpt><trkpt lat="49.14348079982024" lon="2.5098874646722606"><ele>67.14285714285714</ele><time>2026-04-16T10:02:28.998Z</time></trkpt><trkpt lat="49.1434711593168" lon="2.509999334425661"><ele>67.57142857142857</ele><time>2026-04-16T10:02:32.998Z</time></trkpt><trkpt lat="49.143520221702886" lon="2.5101070234751712"><ele>68.0</ele><time>2026-04-16T10:02:37.998Z</time></trkpt><trkpt lat="49.14355646080737" lon="2.5101969090997795"><ele>68.0</ele><time>2026-04-16T10:02:41.998Z</time></trkpt><trkpt lat="49.14358942722662" lon="2.510321606287264"><ele>68.0</ele><time>2026-04-16T10:02:45.998Z</time></trkpt><trkpt lat="49.14362685356802" lon="2.510425629120345"><ele>68.0</ele><time>2026-04-16T10:02:48.997Z</time></trkpt><trkpt lat="49.14367262709852" lon="2.5104996630149827"><ele>68.0</ele><time>2026-04-16T10:02:51.997Z</time></trkpt><trkpt lat="49.143721537880495" lon="2.510586395017619"><ele>68.0</ele><time>2026-04-16T10:02:55.997Z</time></trkpt><trkpt lat="49.14376552365202" lon="2.5106660835014347"><ele>68.0</ele><time>2026-04-16T10:03:00.997Z</time></trkpt><trkpt lat="49.14382822503199" lon="2.5107381561903193"><ele>68.14285714285714</ele><time>2026-04-16T10:03:04.997Z</time></trkpt><trkpt lat="49.14387251757177" lon="2.5108267571169343"><ele>68.28571428571428</ele><time>2026-04-16T10:03:08.997Z</time></trkpt><trkpt lat="49.143918874548376" lon="2.5109087336770215"><ele>68.42857142857143</ele><time>2026-04-16T10:03:11.997Z</time></trkpt><trkpt lat="49.14397906015913" lon="2.510950378697569"><ele>68.57142857142857</ele><time>2026-04-16T10:03:14.997Z</time></trkpt><trkpt lat="49.14402762212785" lon="2.511030770638124"><ele>68.71428571428572</ele><time>2026-04-16T10:03:17.997Z</time></trkpt><trkpt lat="49.144079762257626" lon="2.5111314697820712"><ele>68.85714285714286</ele><time>2026-04-16T10:03:22Z</time></trkpt><trkpt lat="49.1441301400736" lon="2.5112301403628368"><ele>69.0</ele><time>2026-04-16T10:03:26Z</time></trkpt><trkpt lat="49.14417297800934" lon="2.5113028440143426"><ele>68.5</ele><time>2026-04-16T10:03:29Z</time></trkpt><trkpt lat="49.144236779071065" lon="2.5113758127418286"><ele>68.0</ele><time>2026-04-16T10:03:33Z</time></trkpt><trkpt lat="49.144326798387915" lon="2.511413041726575"><ele>67.5</ele><time>2026-04-16T10:03:37Z</time></trkpt><trkpt lat="49.14438001178161" lon="2.5115176642552095"><ele>67.0</ele><time>2026-04-16T10:03:41Z</time></trkpt><trkpt lat="49.14443370777948" lon="2.5115761017035845"><ele>66.5</ele><time>2026-04-16T10:03:44Z</time></trkpt><trkpt lat="49.14447939996037" lon="2.5116784386053452"><ele>66.0</ele><time>2026-04-16T10:03:47.999Z</time></trkpt><trkpt lat="49.14448783347231" lon="2.511803682968269"><ele>66.0</ele><time>2026-04-16T10:03:51.999Z</time></trkpt><trkpt lat="49.14448986090425" lon="2.5119205008965073"><ele>66.0</ele><time>2026-04-16T10:03:55.999Z</time></trkpt><trkpt lat="49.14448740984254" lon="2.512019422412877"><ele>66.0</ele><time>2026-04-16T10:03:59.999Z</time></trkpt><trkpt lat="49.144480309528426" lon="2.5121239725185793"><ele>66.0</ele><time>2026-04-16T10:04:03.999Z</time></trkpt><trkpt lat="49.14452742496791" lon="2.5121972666181374"><ele>66.0</ele><time>2026-04-16T10:04:07.999Z</time></trkpt><trkpt lat="49.14460479929059" lon="2.5121991810424973"><ele>66.0</ele><time>2026-04-16T10:04:12.999Z</time></trkpt><trkpt lat="49.1446672909491" lon="2.5121740138105833"><ele>66.0</ele><time>2026-04-16T10:04:16.998Z</time></trkpt><trkpt lat="49.144750327797176" lon="2.5121627776098903"><ele>65.83333333333333</ele><time>2026-04-16T10:04:21.998Z</time></trkpt><trkpt lat="49.144828099681234" lon="2.512135092691429"><ele>65.66666666666667</ele><time>2026-04-16T10:04:25.998Z</time></trkpt><trkpt lat="49.144900642891876" lon="2.5121100263116745"><ele>65.5</ele><time>2026-04-16T10:04:29.998Z</time></trkpt><trkpt lat="49.1449697364413" lon="2.51208922525087"><ele>65.33333333333334</ele><time>2026-04-16T10:04:33.998Z</time></trkpt><trkpt lat="49.145034191257714" lon="2.5120699261090276"><ele>65.16666666666667</ele><time>2026-04-16T10:04:36.998Z</time></trkpt><trkpt lat="49.14512054947646" lon="2.512040828280914"><ele>65.0</ele><time>2026-04-16T10:04:40.998Z</time></trkpt><trkpt lat="49.14519716923406" lon="2.512014339561916"><ele>65.00000000000001</ele><time>2026-04-16T10:04:44.998Z</time></trkpt><trkpt lat="49.14527597315575" lon="2.5119824290827233"><ele>65.0</ele><time>2026-04-16T10:04:48.997Z</time></trkpt><trkpt lat="49.145339822310916" lon="2.5119692838180905"><ele>65.0</ele><time>2026-04-16T10:04:52.997Z</time></trkpt><trkpt lat="49.14540373010453" lon="2.511947540665533"><ele>65.0</ele><time>2026-04-16T10:04:55.997Z</time></trkpt><trkpt lat="49.145467647535774" lon="2.51192522404807"><ele>65.0</ele><time>2026-04-16T10:04:58.997Z</time></trkpt><trkpt lat="49.14553138823488" lon="2.51189491377364"><ele>65.00000000000001</ele><time>2026-04-16T10:05:02.997Z</time></trkpt><trkpt lat="49.145603725908664" lon="2.5118710904067703"><ele>65.0</ele><time>2026-04-16T10:05:07.997Z</time></trkpt><trkpt lat="49.14568279258704" lon="2.511843330407078"><ele>64.00000000000001</ele><time>2026-04-16T10:05:11.997Z</time></trkpt><trkpt lat="49.1457459004562" lon="2.5118225675457326"><ele>63.0</ele><time>2026-04-16T10:05:15.997Z</time></trkpt><trkpt lat="49.14582113397479" lon="2.5118005010921807"><ele>62.00000000000001</ele><time>2026-04-16T10:05:20.996Z</time></trkpt><trkpt lat="49.14589551225047" lon="2.5117807775693817"><ele>61.00000000000001</ele><time>2026-04-16T10:05:26Z</time></trkpt><trkpt lat="49.145967753369234" lon="2.5117627449351576"><ele>60.0</ele><time>2026-04-16T10:05:31Z</time></trkpt><trkpt lat="49.14603157334972" lon="2.5117454587248145"><ele>59.00000000000001</ele><time>2026-04-16T10:05:35Z</time></trkpt><trkpt lat="49.14610007490144" lon="2.5117226309277934"><ele>58.00000000000001</ele><time>2026-04-16T10:05:39Z</time></trkpt><trkpt lat="49.14616761387377" lon="2.511704054975977"><ele>58.00000000000001</ele><time>2026-04-16T10:05:43Z</time></trkpt><trkpt lat="49.146237508244475" lon="2.511682993643863"><ele>58.0</ele><time>2026-04-16T10:05:47Z</time></trkpt><trkpt lat="49.14630345372878" lon="2.5116587927271814"><ele>58.00000000000001</ele><time>2026-04-16T10:05:50.999Z</time></trkpt><trkpt lat="49.14636549349134" lon="2.51163323156631"><ele>58.00000000000001</ele><time>2026-04-16T10:05:54.999Z</time></trkpt><trkpt lat="49.146431081013944" lon="2.511597281148307"><ele>58.0</ele><time>2026-04-16T10:05:59.999Z</time></trkpt><trkpt lat="49.14649381147664" lon="2.5116060097255426"><ele>58.00000000000001</ele><time>2026-04-16T10:06:03.999Z</time></trkpt><trkpt lat="49.1465685256375" lon="2.5115805499868857"><ele>58.00000000000001</ele><time>2026-04-16T10:06:08.999Z</time></trkpt><trkpt lat="49.146631237419356" lon="2.5115507202872545"><ele>58.00000000000001</ele><time>2026-04-16T10:06:13.999Z</time></trkpt><trkpt lat="49.14670896966642" lon="2.5115363759351994"><ele>58.0</ele><time>2026-04-16T10:06:19.999Z</time></trkpt><trkpt lat="49.14677345646621" lon="2.511497379977232"><ele>58.00000000000001</ele><time>2026-04-16T10:06:24.998Z</time></trkpt><trkpt lat="49.1468530748875" lon="2.5114869764839676"><ele>58.00000000000001</ele><time>2026-04-16T10:06:29.998Z</time></trkpt><trkpt lat="49.14691648189491" lon="2.5114657356806793"><ele>58.0</ele><time>2026-04-16T10:06:33.998Z</time></trkpt><trkpt lat="49.14698063415352" lon="2.511441996470849"><ele>58.00000000000001</ele><time>2026-04-16T10:06:38.998Z</time></trkpt><trkpt lat="49.14704703851535" lon="2.5114237225125584"><ele>58.00000000000001</ele><time>2026-04-16T10:06:43.998Z</time></trkpt><trkpt lat="49.147116687581416" lon="2.5114035370457457"><ele>58.00000000000001</ele><time>2026-04-16T10:06:48.998Z</time></trkpt><trkpt lat="49.14718556084455" lon="2.5113798804894194"><ele>58.0</ele><time>2026-04-16T10:06:53.997Z</time></trkpt><trkpt lat="49.14724941448403" lon="2.5113571408377457"><ele>58.00000000000001</ele><time>2026-04-16T10:06:57.997Z</time></trkpt><trkpt lat="49.14731984975388" lon="2.5113359314384485"><ele>58.00000000000001</ele><time>2026-04-16T10:07:01.997Z</time></trkpt><trkpt lat="49.147385052476" lon="2.511313581838768"><ele>58.0</ele><time>2026-04-16T10:07:05.997Z</time></trkpt><trkpt lat="49.147453082859364" lon="2.51129113248566"><ele>58.00000000000001</ele><time>2026-04-16T10:07:09.997Z</time></trkpt><trkpt lat="49.14752524754167" lon="2.5112687095832635"><ele>58.00000000000001</ele><time>2026-04-16T10:07:14.997Z</time></trkpt><trkpt lat="49.147588922151684" lon="2.5112438155165404"><ele>58.14285714285715</ele><time>2026-04-16T10:07:19.997Z</time></trkpt><trkpt lat="49.14765334192006" lon="2.5112260723379682"><ele>58.28571428571429</ele><time>2026-04-16T10:07:24.996Z</time></trkpt><trkpt lat="49.14772246216111" lon="2.5111917961700128"><ele>58.42857142857143</ele><time>2026-04-16T10:07:29.996Z</time></trkpt><trkpt lat="49.14778969683685" lon="2.5111761561418735"><ele>58.57142857142858</ele><time>2026-04-16T10:07:34Z</time></trkpt><trkpt lat="49.14786204370755" lon="2.511150984408084"><ele>58.71428571428572</ele><time>2026-04-16T10:07:38Z</time></trkpt><trkpt lat="49.147941241529516" lon="2.5111262464118362"><ele>58.857142857142854</ele><time>2026-04-16T10:07:42Z</time></trkpt><trkpt lat="49.14800843240443" lon="2.511104648014078"><ele>59.0</ele><time>2026-04-16T10:07:45Z</time></trkpt><trkpt lat="49.1480798992172" lon="2.5110805577091226"><ele>59.00000000000001</ele><time>2026-04-16T10:07:49Z</time></trkpt><trkpt lat="49.1481550848108" lon="2.5110592833965217"><ele>59.0</ele><time>2026-04-16T10:07:52.999Z</time></trkpt><trkpt lat="49.14821700223095" lon="2.5110381478428354"><ele>59.0</ele><time>2026-04-16T10:07:56.999Z</time></trkpt><trkpt lat="49.14828485541283" lon="2.5110177000808496"><ele>59.0</ele><time>2026-04-16T10:08:00.999Z</time></trkpt><trkpt lat="49.148359172188094" lon="2.5109844162946007"><ele>59.00000000000001</ele><time>2026-04-16T10:08:04.999Z</time></trkpt><trkpt lat="49.148439071662544" lon="2.5109575091575853"><ele>59.0</ele><time>2026-04-16T10:08:08.999Z</time></trkpt><trkpt lat="49.14851862237244" lon="2.5109304314804524"><ele>58.71428571428571</ele><time>2026-04-16T10:08:12.999Z</time></trkpt><trkpt lat="49.14859588987502" lon="2.5109066077795292"><ele>58.42857142857143</ele><time>2026-04-16T10:08:16.999Z</time></trkpt><trkpt lat="49.14866291246808" lon="2.510878876593124"><ele>58.14285714285714</ele><time>2026-04-16T10:08:20.999Z</time></trkpt><trkpt lat="49.14874113181808" lon="2.510856325280214"><ele>57.857142857142854</ele><time>2026-04-16T10:08:24.998Z</time></trkpt><trkpt lat="49.148810321688586" lon="2.5108383906915774"><ele>57.57142857142857</ele><time>2026-04-16T10:08:27.998Z</time></trkpt><trkpt lat="49.14887615143434" lon="2.5108068571462354"><ele>57.285714285714285</ele><time>2026-04-16T10:08:31.998Z</time></trkpt><trkpt lat="49.14895598705814" lon="2.510783659567561"><ele>57.0</ele><time>2026-04-16T10:08:35.998Z</time></trkpt><trkpt lat="49.14902327993184" lon="2.5107576066608144"><ele>57.333333333333336</ele><time>2026-04-16T10:08:38.998Z</time></trkpt><trkpt lat="49.149100338284306" lon="2.5107332903810105"><ele>57.66666666666667</ele><time>2026-04-16T10:08:42.998Z</time></trkpt><trkpt lat="49.149170873226396" lon="2.5107040201106807"><ele>58.0</ele><time>2026-04-16T10:08:46.998Z</time></trkpt><trkpt lat="49.149243182872" lon="2.51067886371479"><ele>58.333333333333336</ele><time>2026-04-16T10:08:50.998Z</time></trkpt><trkpt lat="49.14931425152555" lon="2.5106526742215616"><ele>58.66666666666667</ele><time>2026-04-16T10:08:54.997Z</time></trkpt><trkpt lat="49.1493846335376" lon="2.510628278085188"><ele>59.0</ele><time>2026-04-16T10:08:58.997Z</time></trkpt><trkpt lat="49.14946140358714" lon="2.5105999148009603"><ele>59.0</ele><time>2026-04-16T10:09:02.997Z</time></trkpt><trkpt lat="49.14952715223081" lon="2.510567212277904"><ele>59.0</ele><time>2026-04-16T10:09:06.997Z</time></trkpt><trkpt lat="49.14959317121542" lon="2.5105502119892074"><ele>59.0</ele><time>2026-04-16T10:09:10.997Z</time></trkpt><trkpt lat="49.14966933528021" lon="2.510521438230345"><ele>59.0</ele><time>2026-04-16T10:09:15.997Z</time></trkpt><trkpt lat="49.14973051098662" lon="2.510496716842425"><ele>59.0</ele><time>2026-04-16T10:09:19.997Z</time></trkpt><trkpt lat="49.149808312219676" lon="2.5104745791181022"><ele>59.0</ele><time>2026-04-16T10:09:24.997Z</time></trkpt><trkpt lat="49.149870290877686" lon="2.5104492761845116"><ele>59.0</ele><time>2026-04-16T10:09:28.996Z</time></trkpt><trkpt lat="49.149932314972126" lon="2.510431722692918"><ele>58.833333333333336</ele><time>2026-04-16T10:09:32.996Z</time></trkpt><trkpt lat="49.150009266547336" lon="2.510407246352231"><ele>58.66666666666667</ele><time>2026-04-16T10:09:38Z</time></trkpt><trkpt lat="49.150081435566065" lon="2.5103906397662756"><ele>58.5</ele><time>2026-04-16T10:09:42Z</time></trkpt><trkpt lat="49.150159820114865" lon="2.510368013853774"><ele>58.33333333333333</ele><time>2026-04-16T10:09:46Z</time></trkpt><trkpt lat="49.150237529897716" lon="2.510338830517275"><ele>58.166666666666664</ele><time>2026-04-16T10:09:50Z</time></trkpt><trkpt lat="49.15030501187676" lon="2.510319457988438"><ele>58.0</ele><time>2026-04-16T10:09:53Z</time></trkpt><trkpt lat="49.15037527502825" lon="2.5103015404985314"><ele>58.00000000000001</ele><time>2026-04-16T10:09:55.999Z</time></trkpt><trkpt lat="49.15045865398733" lon="2.5102812882134984"><ele>58.0</ele><time>2026-04-16T10:09:59.999Z</time></trkpt><trkpt lat="49.15053611576807" lon="2.5102581410615343"><ele>58.00000000000001</ele><time>2026-04-16T10:10:03.999Z</time></trkpt><trkpt lat="49.150612569361535" lon="2.5102433887635898"><ele>58.00000000000001</ele><time>2026-04-16T10:10:06.999Z</time></trkpt><trkpt lat="49.15067765197866" lon="2.510224365328143"><ele>58.0</ele><time>2026-04-16T10:10:09.999Z</time></trkpt><trkpt lat="49.15075400310049" lon="2.5102021828703087"><ele>58.00000000000001</ele><time>2026-04-16T10:10:13.999Z</time></trkpt><trkpt lat="49.15081686839716" lon="2.510191420933539"><ele>58.00000000000001</ele><time>2026-04-16T10:10:17.999Z</time></trkpt><trkpt lat="49.15087875008808" lon="2.5101727673319925"><ele>57.85714285714286</ele><time>2026-04-16T10:10:20.999Z</time></trkpt><trkpt lat="49.150948155553266" lon="2.5101485412883218"><ele>57.714285714285715</ele><time>2026-04-16T10:10:23.999Z</time></trkpt><trkpt lat="49.15102105508531" lon="2.510118432598016"><ele>57.57142857142857</ele><time>2026-04-16T10:10:27.998Z</time></trkpt><trkpt lat="49.15108984010038" lon="2.5100857401727987"><ele>57.42857142857143</ele><time>2026-04-16T10:10:31.998Z</time></trkpt><trkpt lat="49.151154911756066" lon="2.5100523236995906"><ele>57.28571428571428</ele><time>2026-04-16T10:10:35.998Z</time></trkpt><trkpt lat="49.15122699705033" lon="2.5100132641068043"><ele>57.14285714285714</ele><time>2026-04-16T10:10:39.998Z</time></trkpt><trkpt lat="49.15130386329766" lon="2.509965409359287"><ele>57.0</ele><time>2026-04-16T10:10:43.998Z</time></trkpt><trkpt lat="49.15138188308831" lon="2.5099163643141185"><ele>57.0</ele><time>2026-04-16T10:10:47.998Z</time></trkpt><trkpt lat="49.15145478289353" lon="2.509872111966853"><ele>57.0</ele><time>2026-04-16T10:10:51.998Z</time></trkpt><trkpt lat="49.151520851607714" lon="2.5098227109772733"><ele>57.0</ele><time>2026-04-16T10:10:55.998Z</time></trkpt><trkpt lat="49.15159515428046" lon="2.509769298521649"><ele>57.0</ele><time>2026-04-16T10:10:59.997Z</time></trkpt><trkpt lat="49.1516752880348" lon="2.5097117165670872"><ele>57.0</ele><time>2026-04-16T10:11:03.997Z</time></trkpt><trkpt lat="49.15173308746207" lon="2.509667662995351"><ele>57.0</ele><time>2026-04-16T10:11:06.997Z</time></trkpt><trkpt lat="49.15178984747264" lon="2.5096202970855814"><ele>56.0</ele><time>2026-04-16T10:11:09.997Z</time></trkpt><trkpt lat="49.15184697911869" lon="2.5095730460389807"><ele>54.99999999999999</ele><time>2026-04-16T10:11:12.997Z</time></trkpt><trkpt lat="49.151909161741024" lon="2.509523666887735"><ele>54.0</ele><time>2026-04-16T10:11:15.997Z</time></trkpt><trkpt lat="49.15196695313657" lon="2.509480163981812"><ele>53.0</ele><time>2026-04-16T10:11:18.997Z</time></trkpt><trkpt lat="49.15202811076222" lon="2.5094327342954696"><ele>52.0</ele><time>2026-04-16T10:11:21.997Z</time></trkpt><trkpt lat="49.15208657464404" lon="2.5093931212931215"><ele>51.0</ele><time>2026-04-16T10:11:24.997Z</time></trkpt><trkpt lat="49.152144967076616" lon="2.5093506592733683"><ele>50.0</ele><time>2026-04-16T10:11:27.997Z</time></trkpt><trkpt lat="49.152206661713066" lon="2.5093069230764837"><ele>50.00000000000001</ele><time>2026-04-16T10:11:30.996Z</time></trkpt><trkpt lat="49.15227326565107" lon="2.5092598420203274"><ele>50.0</ele><time>2026-04-16T10:11:33.996Z</time></trkpt><trkpt lat="49.15233201560639" lon="2.5092093291189976"><ele>50.0</ele><time>2026-04-16T10:11:36.996Z</time></trkpt><trkpt lat="49.15238391222339" lon="2.5091483295848627"><ele>50.0</ele><time>2026-04-16T10:11:39.996Z</time></trkpt><trkpt lat="49.152458332887875" lon="2.5091172644373367"><ele>50.0</ele><time>2026-04-16T10:11:44Z</time></trkpt><trkpt lat="49.15252389936812" lon="2.509056453985328"><ele>50.00000000000001</ele><time>2026-04-16T10:11:47Z</time></trkpt><trkpt lat="49.15258194992247" lon="2.508999395108928"><ele>50.0</ele><time>2026-04-16T10:11:50Z</time></trkpt><trkpt lat="49.152648707778454" lon="2.5089740002422265"><ele>50.42857142857143</ele><time>2026-04-16T10:11:54Z</time></trkpt><trkpt lat="49.15272338186321" lon="2.5089683002883407"><ele>50.85714285714286</ele><time>2026-04-16T10:11:58Z</time></trkpt><trkpt lat="49.15277875582514" lon="2.5090233126501573"><ele>51.28571428571429</ele><time>2026-04-16T10:12:00.999Z</time></trkpt><trkpt lat="49.1528346384141" lon="2.5091107225335914"><ele>51.714285714285715</ele><time>2026-04-16T10:12:04.999Z</time></trkpt><trkpt lat="49.1528898943925" lon="2.5091822960719474"><ele>52.14285714285714</ele><time>2026-04-16T10:12:08.999Z</time></trkpt><trkpt lat="49.15294703035088" lon="2.5092491093266127"><ele>52.57142857142858</ele><time>2026-04-16T10:12:12.999Z</time></trkpt><trkpt lat="49.15299457400371" lon="2.5093328202691767"><ele>53.0</ele><time>2026-04-16T10:12:16.999Z</time></trkpt><trkpt lat="49.15303156850716" lon="2.509436835467722"><ele>53.00000000000001</ele><time>2026-04-16T10:12:20.999Z</time></trkpt><trkpt lat="49.15308201386784" lon="2.509535531829708"><ele>53.0</ele><time>2026-04-16T10:12:24.999Z</time></trkpt><trkpt lat="49.15313188191994" lon="2.5096186434166237"><ele>53.0</ele><time>2026-04-16T10:12:27.999Z</time></trkpt><trkpt lat="49.15319408188617" lon="2.50968725580735"><ele>53.0</ele><time>2026-04-16T10:12:30.999Z</time></trkpt><trkpt lat="49.15326121815976" lon="2.509740118314874"><ele>53.00000000000001</ele><time>2026-04-16T10:12:33.998Z</time></trkpt><trkpt lat="49.15333124401469" lon="2.509808479666946"><ele>53.0</ele><time>2026-04-16T10:12:37.998Z</time></trkpt><trkpt lat="49.15339127405792" lon="2.509838778867579"><ele>52.50000000000001</ele><time>2026-04-16T10:12:40.998Z</time></trkpt><trkpt lat="49.153469182063496" lon="2.5098741921438132"><ele>52.0</ele><time>2026-04-16T10:12:44.998Z</time></trkpt><trkpt lat="49.15354368801756" lon="2.5098811375378163"><ele>51.5</ele><time>2026-04-16T10:12:48.998Z</time></trkpt><trkpt lat="49.15362137139025" lon="2.5098467315718533"><ele>51.0</ele><time>2026-04-16T10:12:52.998Z</time></trkpt><trkpt lat="49.153695144485965" lon="2.509819569428823"><ele>50.50000000000001</ele><time>2026-04-16T10:12:56.998Z</time></trkpt><trkpt lat="49.15375773981407" lon="2.5097552779736017"><ele>50.0</ele><time>2026-04-16T10:13:00.998Z</time></trkpt><trkpt lat="49.15381588434827" lon="2.509716259303187"><ele>50.00000000000001</ele><time>2026-04-16T10:13:03.997Z</time></trkpt><trkpt lat="49.15389027476186" lon="2.5096686703150817"><ele>50.0</ele><time>2026-04-16T10:13:07.997Z</time></trkpt><trkpt lat="49.15396800837738" lon="2.5096457216905184"><ele>50.0</ele><time>2026-04-16T10:13:11.997Z</time></trkpt><trkpt lat="49.15402917183564" lon="2.5095948343052275"><ele>50.0</ele><time>2026-04-16T10:13:15.997Z</time></trkpt><trkpt lat="49.15409117309228" lon="2.509567087479373"><ele>50.0</ele><time>2026-04-16T10:13:19.997Z</time></trkpt><trkpt lat="49.15414664645134" lon="2.50951693003057"><ele>50.00000000000001</ele><time>2026-04-16T10:13:25.997Z</time></trkpt><trkpt lat="49.15420027380381" lon="2.5094652719781845"><ele>50.0</ele><time>2026-04-16T10:13:31.997Z</time></trkpt><trkpt lat="49.154256934128945" lon="2.509412573962415"><ele>50.42857142857143</ele><time>2026-04-16T10:13:37.996Z</time></trkpt><trkpt lat="49.154314776373376" lon="2.5093467924852586"><ele>50.85714285714286</ele><time>2026-04-16T10:13:42.996Z</time></trkpt><trkpt lat="49.154375899474346" lon="2.5092894932226115"><ele>51.28571428571429</ele><time>2026-04-16T10:13:48Z</time></trkpt><trkpt lat="49.15443758064435" lon="2.509251930450969"><ele>51.714285714285715</ele><time>2026-04-16T10:15:11.997Z</time></trkpt><trkpt lat="49.1544965952782" lon="2.509179123599056"><ele>52.14285714285714</ele><time>2026-04-16T10:15:19.997Z</time></trkpt><trkpt lat="49.15455140750771" lon="2.5091171863511894"><ele>52.57142857142858</ele><time>2026-04-16T10:15:24.997Z</time></trkpt><trkpt lat="49.154612505284526" lon="2.5090638356083153"><ele>53.0</ele><time>2026-04-16T10:15:28.997Z</time></trkpt><trkpt lat="49.15467231388712" lon="2.5090027651801687"><ele>53.00000000000001</ele><time>2026-04-16T10:15:32.997Z</time></trkpt><trkpt lat="49.15474928143195" lon="2.5089884062844017"><ele>53.0</ele><time>2026-04-16T10:15:36.997Z</time></trkpt><trkpt lat="49.15481884479542" lon="2.508907422145932"><ele>53.0</ele><time>2026-04-16T10:15:40.996Z</time></trkpt><trkpt lat="49.15488149567242" lon="2.5088626544979924"><ele>53.0</ele><time>2026-04-16T10:15:45.996Z</time></trkpt><trkpt lat="49.154945468904344" lon="2.50880368092506"><ele>53.00000000000001</ele><time>2026-04-16T10:15:49.996Z</time></trkpt><trkpt lat="49.15501837857571" lon="2.508762977157516"><ele>53.0</ele><time>2026-04-16T10:15:55Z</time></trkpt><trkpt lat="49.15509153566174" lon="2.508729928250551"><ele>52.57142857142858</ele><time>2026-04-16T10:15:59Z</time></trkpt><trkpt lat="49.155163198354465" lon="2.5086737186889043"><ele>52.14285714285714</ele><time>2026-04-16T10:16:03Z</time></trkpt><trkpt lat="49.155223892704754" lon="2.5086411011501317"><ele>51.714285714285715</ele><time>2026-04-16T10:16:06Z</time></trkpt><trkpt lat="49.155290173766154" lon="2.5085986909733067"><ele>51.28571428571429</ele><time>2026-04-16T10:16:10Z</time></trkpt><trkpt lat="49.155369022013986" lon="2.508581897906184"><ele>50.85714285714286</ele><time>2026-04-16T10:16:13.999Z</time></trkpt><trkpt lat="49.15543754373129" lon="2.5085615846230445"><ele>50.42857142857143</ele><time>2026-04-16T10:16:16.999Z</time></trkpt><trkpt lat="49.155508558605405" lon="2.5085272245857166"><ele>50.0</ele><time>2026-04-16T10:16:19.999Z</time></trkpt><trkpt lat="49.155569700696574" lon="2.508474296750512"><ele>50.00000000000001</ele><time>2026-04-16T10:16:21.999Z</time></trkpt><trkpt lat="49.155634496859555" lon="2.508464142907082"><ele>50.0</ele><time>2026-04-16T10:16:23.999Z</time></trkpt><trkpt lat="49.15570472236278" lon="2.5084401845916284"><ele>50.0</ele><time>2026-04-16T10:16:25.999Z</time></trkpt><trkpt lat="49.155780923316115" lon="2.508420706133313"><ele>50.0</ele><time>2026-04-16T10:16:28.999Z</time></trkpt><trkpt lat="49.15584923607255" lon="2.5083884012871125"><ele>50.0</ele><time>2026-04-16T10:16:31.999Z</time></trkpt><trkpt lat="49.155934289824174" lon="2.508344339160371"><ele>50.00000000000001</ele><time>2026-04-16T10:16:35.999Z</time></trkpt><trkpt lat="49.1559944245441" lon="2.5083097861464734"><ele>50.0</ele><time>2026-04-16T10:16:38.999Z</time></trkpt><trkpt lat="49.15608003527298" lon="2.50829471990028"><ele>50.833333333333336</ele><time>2026-04-16T10:16:42.999Z</time></trkpt><trkpt lat="49.15616121853892" lon="2.5082816495029796"><ele>51.66666666666667</ele><time>2026-04-16T10:16:46.998Z</time></trkpt><trkpt lat="49.15623477031294" lon="2.508252277479251"><ele>52.5</ele><time>2026-04-16T10:16:50.998Z</time></trkpt><trkpt lat="49.156304347435956" lon="2.508224914915646"><ele>53.33333333333333</ele><time>2026-04-16T10:16:55.998Z</time></trkpt><trkpt lat="49.15638020905953" lon="2.5082169541469646"><ele>54.166666666666664</ele><time>2026-04-16T10:16:59.998Z</time></trkpt><trkpt lat="49.15646019033301" lon="2.5082202832227907"><ele>55.0</ele><time>2026-04-16T10:17:03.998Z</time></trkpt><trkpt lat="49.156527295587736" lon="2.5082160084800713"><ele>54.99999999999999</ele><time>2026-04-16T10:17:06.998Z</time></trkpt><trkpt lat="49.15660716475783" lon="2.508190117396737"><ele>55.0</ele><time>2026-04-16T10:17:10.998Z</time></trkpt><trkpt lat="49.156671571587516" lon="2.5081594217684895"><ele>55.0</ele><time>2026-04-16T10:17:13.998Z</time></trkpt><trkpt lat="49.156734639072795" lon="2.5081569009252105"><ele>55.0</ele><time>2026-04-16T10:17:16.998Z</time></trkpt><trkpt lat="49.1568136249025" lon="2.508148180185341"><ele>55.0</ele><time>2026-04-16T10:17:20.997Z</time></trkpt><trkpt lat="49.15687659874762" lon="2.5081339193462187"><ele>54.99999999999999</ele><time>2026-04-16T10:17:23.997Z</time></trkpt><trkpt lat="49.15694730687173" lon="2.5081442735375825"><ele>55.0</ele><time>2026-04-16T10:17:26.997Z</time></trkpt><trkpt lat="49.157012527729826" lon="2.5081579518347565"><ele>54.99999999999999</ele><time>2026-04-16T10:17:29.997Z</time></trkpt><trkpt lat="49.15708424618387" lon="2.5081456678413385"><ele>55.0</ele><time>2026-04-16T10:17:32.997Z</time></trkpt><trkpt lat="49.15714694494774" lon="2.5081701367245657"><ele>55.0</ele><time>2026-04-16T10:17:35.997Z</time></trkpt><trkpt lat="49.157211433815355" lon="2.508173939006664"><ele>55.0</ele><time>2026-04-16T10:17:39.997Z</time></trkpt><trkpt lat="49.15729189755274" lon="2.508153895740131"><ele>55.0</ele><time>2026-04-16T10:17:43.997Z</time></trkpt><trkpt lat="49.157367968698274" lon="2.5081545797938065"><ele>54.99999999999999</ele><time>2026-04-16T10:17:47.997Z</time></trkpt><trkpt lat="49.15744345956841" lon="2.5081375255274385"><ele>55.0</ele><time>2026-04-16T10:17:51.996Z</time></trkpt><trkpt lat="49.15751935322821" lon="2.508116705360642"><ele>55.166666666666664</ele><time>2026-04-16T10:17:56.996Z</time></trkpt><trkpt lat="49.15759198590854" lon="2.508080875716505"><ele>55.33333333333333</ele><time>2026-04-16T10:18:10Z</time></trkpt><trkpt lat="49.15766957984081" lon="2.5080760227254344"><ele>55.5</ele><time>2026-04-16T10:18:14Z</time></trkpt><trkpt lat="49.157757088922665" lon="2.508053570060518"><ele>55.66666666666667</ele><time>2026-04-16T10:18:17.999Z</time></trkpt><trkpt lat="49.157820934865036" lon="2.508038432466093"><ele>55.833333333333336</ele><time>2026-04-16T10:18:20.999Z</time></trkpt><trkpt lat="49.1578986568766" lon="2.5080412809921566"><ele>56.0</ele><time>2026-04-16T10:18:24.999Z</time></trkpt><trkpt lat="49.157975927008" lon="2.5080105994117714"><ele>56.00000000000001</ele><time>2026-04-16T10:18:28.999Z</time></trkpt><trkpt lat="49.1580587879783" lon="2.507994059736081"><ele>56.0</ele><time>2026-04-16T10:18:32.999Z</time></trkpt><trkpt lat="49.15813643192919" lon="2.5079624119639874"><ele>56.0</ele><time>2026-04-16T10:18:36.999Z</time></trkpt><trkpt lat="49.15819933640549" lon="2.507947900520261"><ele>56.0</ele><time>2026-04-16T10:18:40.999Z</time></trkpt><trkpt lat="49.158283302817544" lon="2.5079305090092903"><ele>56.00000000000001</ele><time>2026-04-16T10:18:44.999Z</time></trkpt><trkpt lat="49.158362420613265" lon="2.5079013305448616"><ele>56.0</ele><time>2026-04-16T10:18:50.998Z</time></trkpt><trkpt lat="49.15844067182912" lon="2.507862730688845"><ele>54.857142857142854</ele><time>2026-04-16T10:18:55.998Z</time></trkpt><trkpt lat="49.15850887831654" lon="2.5078246824098587"><ele>53.714285714285715</ele><time>2026-04-16T10:18:59.998Z</time></trkpt><trkpt lat="49.158580414819205" lon="2.5077729186829982"><ele>52.57142857142857</ele><time>2026-04-16T10:19:03.998Z</time></trkpt><trkpt lat="49.15864377687958" lon="2.507719876311157"><ele>51.42857142857143</ele><time>2026-04-16T10:19:07.998Z</time></trkpt><trkpt lat="49.158700855155566" lon="2.507643816569051"><ele>50.285714285714285</ele><time>2026-04-16T10:19:11.998Z</time></trkpt><trkpt lat="49.15875976565231" lon="2.507566106988048"><ele>49.14285714285714</ele><time>2026-04-16T10:19:15.998Z</time></trkpt><trkpt lat="49.1588073326158" lon="2.507489487949221"><ele>48.0</ele><time>2026-04-16T10:19:19.998Z</time></trkpt><trkpt lat="49.15885152459951" lon="2.507418992288014"><ele>47.99999999999999</ele><time>2026-04-16T10:19:22.997Z</time></trkpt><trkpt lat="49.15890217724156" lon="2.507343840069068"><ele>48.0</ele><time>2026-04-16T10:19:25.997Z</time></trkpt><trkpt lat="49.15895101953203" lon="2.507263634027175"><ele>48.0</ele><time>2026-04-16T10:19:29.997Z</time></trkpt><trkpt lat="49.15899253870949" lon="2.507190379310556"><ele>48.0</ele><time>2026-04-16T10:19:32.997Z</time></trkpt><trkpt lat="49.159023813957056" lon="2.507094347911498"><ele>48.0</ele><time>2026-04-16T10:19:36.997Z</time></trkpt><trkpt lat="49.159059343563456" lon="2.507005965672471"><ele>47.99999999999999</ele><time>2026-04-16T10:19:40.997Z</time></trkpt><trkpt lat="49.15907926269661" lon="2.5068894791406273"><ele>48.0</ele><time>2026-04-16T10:19:44.997Z</time></trkpt><trkpt lat="49.159107768200045" lon="2.506801209460636"><ele>48.285714285714285</ele><time>2026-04-16T10:19:48.997Z</time></trkpt><trkpt lat="49.1591534053718" lon="2.506723173437672"><ele>48.57142857142857</ele><time>2026-04-16T10:19:52.997Z</time></trkpt><trkpt lat="49.159174080065334" lon="2.506606863385714"><ele>48.85714285714286</ele><time>2026-04-16T10:19:56.996Z</time></trkpt><trkpt lat="49.15918793542481" lon="2.5065059070734024"><ele>49.14285714285714</ele><time>2026-04-16T10:19:59.996Z</time></trkpt><trkpt lat="49.159207368124136" lon="2.5063948707261834"><ele>49.42857142857143</ele><time>2026-04-16T10:20:03.996Z</time></trkpt><trkpt lat="49.159230733133406" lon="2.506299719052831"><ele>49.714285714285715</ele><time>2026-04-16T10:20:07Z</time></trkpt><trkpt lat="49.159243217887784" lon="2.5061964001864707"><ele>50.0</ele><time>2026-04-16T10:20:10Z</time></trkpt><trkpt lat="49.15925772516072" lon="2.5061011460771265"><ele>50.00000000000001</ele><time>2026-04-16T10:20:13Z</time></trkpt><trkpt lat="49.15929451996142" lon="2.505985682270455"><ele>50.0</ele><time>2026-04-16T10:20:16Z</time></trkpt><trkpt lat="49.15931954817164" lon="2.5058746432357655"><ele>50.0</ele><time>2026-04-16T10:20:19Z</time></trkpt><trkpt lat="49.15933431129315" lon="2.5057641955754466"><ele>50.0</ele><time>2026-04-16T10:20:22Z</time></trkpt><trkpt lat="49.15935708732798" lon="2.5056430166116015"><ele>50.00000000000001</ele><time>2026-04-16T10:20:25.999Z</time></trkpt><trkpt lat="49.15937032540565" lon="2.505535676135449"><ele>50.0</ele><time>2026-04-16T10:20:29.999Z</time></trkpt><trkpt lat="49.15936848082897" lon="2.505418074613875"><ele>50.00000000000001</ele><time>2026-04-16T10:20:32.999Z</time></trkpt><trkpt lat="49.15937738590783" lon="2.5053075816078447"><ele>50.0</ele><time>2026-04-16T10:20:35.999Z</time></trkpt><trkpt lat="49.15937616046742" lon="2.5051776815794704"><ele>50.0</ele><time>2026-04-16T10:20:39.999Z</time></trkpt><trkpt lat="49.159370036565846" lon="2.505078014747901"><ele>50.0</ele><time>2026-04-16T10:20:42.999Z</time></trkpt><trkpt lat="49.15934589316089" lon="2.504961201529632"><ele>50.00000000000001</ele><time>2026-04-16T10:20:46.999Z</time></trkpt><trkpt lat="49.15931987778882" lon="2.5048521205655394"><ele>50.0</ele><time>2026-04-16T10:20:50.999Z</time></trkpt><trkpt lat="49.15928924749149" lon="2.5047529214818174"><ele>50.00000000000001</ele><time>2026-04-16T10:20:54.999Z</time></trkpt><trkpt lat="49.15926777632238" lon="2.5046615612465337"><ele>50.0</ele><time>2026-04-16T10:20:57.998Z</time></trkpt><trkpt lat="49.15924228061303" lon="2.504565440385437"><ele>50.0</ele><time>2026-04-16T10:21:01.998Z</time></trkpt><trkpt lat="49.15921111876942" lon="2.504462840407044"><ele>50.0</ele><time>2026-04-16T10:21:06.998Z</time></trkpt><trkpt lat="49.15917031668802" lon="2.504374140954902"><ele>50.0</ele><time>2026-04-16T10:21:10.998Z</time></trkpt><trkpt lat="49.15913557616038" lon="2.5042932810139624"><ele>50.00000000000001</ele><time>2026-04-16T10:21:14.998Z</time></trkpt><trkpt lat="49.15909773546643" lon="2.5041968441532387"><ele>50.0</ele><time>2026-04-16T10:21:19.998Z</time></trkpt><trkpt lat="49.15905330668454" lon="2.5041170488542437"><ele>50.00000000000001</ele><time>2026-04-16T10:21:23.998Z</time></trkpt><trkpt lat="49.15901353241257" lon="2.504016905982168"><ele>50.0</ele><time>2026-04-16T10:21:28.997Z</time></trkpt><trkpt lat="49.15897422820369" lon="2.5039395476475326"><ele>50.0</ele><time>2026-04-16T10:21:32.997Z</time></trkpt><trkpt lat="49.158937756310834" lon="2.5038523655846157"><ele>50.0</ele><time>2026-04-16T10:21:36.997Z</time></trkpt><trkpt lat="49.15890101676113" lon="2.5037681045014226"><ele>50.0</ele><time>2026-04-16T10:21:40.997Z</time></trkpt><trkpt lat="49.15886114401884" lon="2.503685375764167"><ele>50.00000000000001</ele><time>2026-04-16T10:21:44.997Z</time></trkpt><trkpt lat="49.15879394456983" lon="2.5036018348447597"><ele>50.0</ele><time>2026-04-16T10:21:48.997Z</time></trkpt><trkpt lat="49.15874540285785" lon="2.5035359918200437"><ele>50.00000000000001</ele><time>2026-04-16T10:21:51.997Z</time></trkpt><trkpt lat="49.15868842346571" lon="2.5034489878527166"><ele>50.0</ele><time>2026-04-16T10:21:56.997Z</time></trkpt><trkpt lat="49.1586336711347" lon="2.5033912608931845"><ele>50.0</ele><time>2026-04-16T10:21:59.996Z</time></trkpt><trkpt lat="49.15859217204397" lon="2.5033164148152096"><ele>50.0</ele><time>2026-04-16T10:22:02.996Z</time></trkpt><trkpt lat="49.15853899391101" lon="2.5032541899280876"><ele>50.0</ele><time>2026-04-16T10:22:05.996Z</time></trkpt><trkpt lat="49.15848879898655" lon="2.503165919570775"><ele>50.00000000000001</ele><time>2026-04-16T10:22:09.996Z</time></trkpt><trkpt lat="49.1584562131697" lon="2.5030791504459984"><ele>50.0</ele><time>2026-04-16T10:22:13Z</time></trkpt><trkpt lat="49.158413996450456" lon="2.502972700492012"><ele>50.00000000000001</ele><time>2026-04-16T10:22:17Z</time></trkpt><trkpt lat="49.15838093442292" lon="2.502875069801259"><ele>50.0</ele><time>2026-04-16T10:22:20.999Z</time></trkpt><trkpt lat="49.15835104378025" lon="2.5027746086695832"><ele>50.0</ele><time>2026-04-16T10:22:24.999Z</time></trkpt><trkpt lat="49.15831931252847" lon="2.502670223566389"><ele>50.0</ele><time>2026-04-16T10:22:28.999Z</time></trkpt><trkpt lat="49.158283779855125" lon="2.5025738211591566"><ele>50.0</ele><time>2026-04-16T10:22:31.999Z</time></trkpt><trkpt lat="49.15826482012911" lon="2.502466057776145"><ele>50.00000000000001</ele><time>2026-04-16T10:22:35.999Z</time></trkpt><trkpt lat="49.158232504398875" lon="2.502382447267036"><ele>50.0</ele><time>2026-04-16T10:22:38.999Z</time></trkpt><trkpt lat="49.15820529779603" lon="2.5022742095738435"><ele>50.00000000000001</ele><time>2026-04-16T10:22:42.999Z</time></trkpt><trkpt lat="49.15818367404775" lon="2.502154258950565"><ele>50.0</ele><time>2026-04-16T10:22:46.999Z</time></trkpt><trkpt lat="49.15818454570668" lon="2.5020344745043217"><ele>50.0</ele><time>2026-04-16T10:22:50.999Z</time></trkpt><trkpt lat="49.158159942010506" lon="2.5019411964460376"><ele>50.0</ele><time>2026-04-16T10:22:53.999Z</time></trkpt><trkpt lat="49.15813125023006" lon="2.5018255966815164"><ele>50.0</ele><time>2026-04-16T10:22:57.999Z</time></trkpt><trkpt lat="49.158105587964386" lon="2.501717566811287"><ele>50.00000000000001</ele><time>2026-04-16T10:23:01.998Z</time></trkpt><trkpt lat="49.15807044937919" lon="2.50163708092641"><ele>50.0</ele><time>2026-04-16T10:23:04.998Z</time></trkpt><trkpt lat="49.15804042751467" lon="2.501524381796344"><ele>49.85714285714286</ele><time>2026-04-16T10:23:08.998Z</time></trkpt><trkpt lat="49.158009553335354" lon="2.501436978120241"><ele>49.714285714285715</ele><time>2026-04-16T10:23:11.998Z</time></trkpt><trkpt lat="49.157998507413986" lon="2.501326981051445"><ele>49.57142857142857</ele><time>2026-04-16T10:23:15.998Z</time></trkpt><trkpt lat="49.15797643343259" lon="2.5012355556376846"><ele>49.42857142857143</ele><time>2026-04-16T10:23:21.998Z</time></trkpt><trkpt lat="49.15791954802457" lon="2.50117916016773"><ele>49.285714285714285</ele><time>2026-04-16T10:23:28.998Z</time></trkpt><trkpt lat="49.15785395342851" lon="2.501132551617558"><ele>49.142857142857146</ele><time>2026-04-16T10:23:35.997Z</time></trkpt><trkpt lat="49.157787998340524" lon="2.50109048387586"><ele>49.0</ele><time>2026-04-16T10:23:39.997Z</time></trkpt><trkpt lat="49.15772667248783" lon="2.5010567519098377"><ele>49.0</ele><time>2026-04-16T10:23:42.997Z</time></trkpt><trkpt lat="49.157668346141875" lon="2.5009960610083897"><ele>49.0</ele><time>2026-04-16T10:23:46.997Z</time></trkpt><trkpt lat="49.15759804029913" lon="2.500939832852009"><ele>49.0</ele><time>2026-04-16T10:23:50.997Z</time></trkpt><trkpt lat="49.1575378819884" lon="2.5008876228967223"><ele>49.0</ele><time>2026-04-16T10:23:54.997Z</time></trkpt><trkpt lat="49.157467808787864" lon="2.500819596243833"><ele>49.0</ele><time>2026-04-16T10:23:58.997Z</time></trkpt><trkpt lat="49.157406432277625" lon="2.5007639651539026"><ele>49.0</ele><time>2026-04-16T10:24:01.997Z</time></trkpt><trkpt lat="49.157342309636824" lon="2.500711930469393"><ele>49.0</ele><time>2026-04-16T10:24:04.997Z</time></trkpt><trkpt lat="49.15728005029186" lon="2.500651539258842"><ele>50.57142857142857</ele><time>2026-04-16T10:24:07.996Z</time></trkpt><trkpt lat="49.157214540470314" lon="2.500610871530801"><ele>52.14285714285714</ele><time>2026-04-16T10:24:10.996Z</time></trkpt><trkpt lat="49.15715743969894" lon="2.500537751485743"><ele>53.714285714285715</ele><time>2026-04-16T10:24:13.996Z</time></trkpt><trkpt lat="49.15708272831347" lon="2.5004953295461037"><ele>55.285714285714285</ele><time>2026-04-16T10:24:18Z</time></trkpt><trkpt lat="49.15702396368421" lon="2.500419225263279"><ele>56.857142857142854</ele><time>2026-04-16T10:24:22Z</time></trkpt><trkpt lat="49.15696956965144" lon="2.5003654424101014"><ele>58.42857142857143</ele><time>2026-04-16T10:24:25Z</time></trkpt><trkpt lat="49.15690824505603" lon="2.5003156788315217"><ele>60.0</ele><time>2026-04-16T10:24:28Z</time></trkpt><trkpt lat="49.156836529963584" lon="2.5002493447297747"><ele>60.142857142857146</ele><time>2026-04-16T10:24:31Z</time></trkpt><trkpt lat="49.156769149840876" lon="2.500177205368207"><ele>60.28571428571428</ele><time>2026-04-16T10:24:33.999Z</time></trkpt><trkpt lat="49.15670224283255" lon="2.5001101484731496"><ele>60.42857142857142</ele><time>2026-04-16T10:24:36.999Z</time></trkpt><trkpt lat="49.1566313737461" lon="2.5000695615884694"><ele>60.57142857142857</ele><time>2026-04-16T10:24:39.999Z</time></trkpt><trkpt lat="49.156565756873334" lon="2.5000254750071504"><ele>60.71428571428571</ele><time>2026-04-16T10:24:43Z</time></trkpt><trkpt lat="49.1565143396833" lon="2.4999667784317756"><ele>60.85714285714285</ele><time>2026-04-16T10:24:46Z</time></trkpt><trkpt lat="49.15645992929388" lon="2.4999128804565656"><ele>60.99999999999999</ele><time>2026-04-16T10:24:49Z</time></trkpt><trkpt lat="49.15639145572531" lon="2.499853456045457"><ele>61.71428571428571</ele><time>2026-04-16T10:24:53Z</time></trkpt><trkpt lat="49.15631793525124" lon="2.499792868944612"><ele>62.42857142857143</ele><time>2026-04-16T10:24:57Z</time></trkpt><trkpt lat="49.15626158562116" lon="2.4997164173060904"><ele>63.14285714285714</ele><time>2026-04-16T10:25:02Z</time></trkpt><trkpt lat="49.15620290782886" lon="2.4996476357719124"><ele>63.857142857142854</ele><time>2026-04-16T10:25:07.999Z</time></trkpt><trkpt lat="49.15619537507049" lon="2.499748123762572"><ele>64.57142857142857</ele><time>2026-04-16T10:25:14.999Z</time></trkpt><trkpt lat="49.15626194230282" lon="2.499742124639599"><ele>65.28571428571428</ele><time>2026-04-16T10:25:20.999Z</time></trkpt><trkpt lat="49.15622824871346" lon="2.4996599603109058"><ele>66.0</ele><time>2026-04-16T10:25:26.999Z</time></trkpt><trkpt lat="49.15622010417045" lon="2.499767572247031"><ele>66.0</ele><time>2026-04-16T10:25:36.998Z</time></trkpt><trkpt lat="49.15628046254475" lon="2.4997369689974556"><ele>66.0</ele><time>2026-04-16T10:25:42.998Z</time></trkpt><trkpt lat="49.1562277203418" lon="2.4996784137506864"><ele>66.0</ele><time>2026-04-16T10:25:47.998Z</time></trkpt><trkpt lat="49.156165863725974" lon="2.4997169291647943"><ele>66.0</ele><time>2026-04-16T10:25:52.998Z</time></trkpt><trkpt lat="49.15610832885367" lon="2.499759950166806"><ele>66.0</ele><time>2026-04-16T10:25:56.998Z</time></trkpt><trkpt lat="49.156043472233634" lon="2.499788319053656"><ele>66.0</ele><time>2026-04-16T10:26:01.998Z</time></trkpt><trkpt lat="49.15597007626416" lon="2.49982427128647"><ele>66.0</ele><time>2026-04-16T10:26:06.998Z</time></trkpt><trkpt lat="49.15590826107217" lon="2.4998595944916233"><ele>66.0</ele><time>2026-04-16T10:26:10.997Z</time></trkpt><trkpt lat="49.155838999361904" lon="2.4999055674289177"><ele>66.0</ele><time>2026-04-16T10:26:14.997Z</time></trkpt><trkpt lat="49.15577725327623" lon="2.4999485558531935"><ele>66.0</ele><time>2026-04-16T10:26:18.997Z</time></trkpt><trkpt lat="49.15571134853085" lon="2.499992174293875"><ele>66.0</ele><time>2026-04-16T10:26:22.997Z</time></trkpt><trkpt lat="49.15563608068662" lon="2.500038663811885"><ele>66.0</ele><time>2026-04-16T10:26:28Z</time></trkpt><trkpt lat="49.15556245780709" lon="2.5000774508864887"><ele>66.0</ele><time>2026-04-16T10:26:33Z</time></trkpt><trkpt lat="49.15550178819846" lon="2.5001098802287194"><ele>66.0</ele><time>2026-04-16T10:26:37Z</time></trkpt><trkpt lat="49.155439219435195" lon="2.5001449992011917"><ele>65.85714285714286</ele><time>2026-04-16T10:26:41Z</time></trkpt><trkpt lat="49.15537742802615" lon="2.5001833487531866"><ele>65.71428571428572</ele><time>2026-04-16T10:26:45Z</time></trkpt><trkpt lat="49.15532088372789" lon="2.500245438632411"><ele>65.57142857142858</ele><time>2026-04-16T10:26:54Z</time></trkpt><trkpt lat="49.15525695162069" lon="2.5002792126701303"><ele>65.42857142857143</ele><time>2026-04-16T10:26:58Z</time></trkpt><trkpt lat="49.155195520201474" lon="2.50030508990159"><ele>65.28571428571429</ele><time>2026-04-16T10:27:01Z</time></trkpt><trkpt lat="49.155132432608255" lon="2.500343077239383"><ele>65.14285714285715</ele><time>2026-04-16T10:27:04Z</time></trkpt><trkpt lat="49.1550536598373" lon="2.5003724305515798"><ele>65.0</ele><time>2026-04-16T10:27:08Z</time></trkpt><trkpt lat="49.154992285293375" lon="2.5004116755676935"><ele>65.14285714285715</ele><time>2026-04-16T10:27:11.999Z</time></trkpt><trkpt lat="49.15493212023754" lon="2.5004464005080567"><ele>65.28571428571429</ele><time>2026-04-16T10:27:14.999Z</time></trkpt><trkpt lat="49.1548715841199" lon="2.5004951460155813"><ele>65.42857142857143</ele><time>2026-04-16T10:27:17.999Z</time></trkpt><trkpt lat="49.15479090266438" lon="2.5005305951178816"><ele>65.57142857142858</ele><time>2026-04-16T10:27:21.999Z</time></trkpt><trkpt lat="49.154733196273774" lon="2.500574972317415"><ele>65.71428571428572</ele><time>2026-04-16T10:27:24.999Z</time></trkpt><trkpt lat="49.15467080113022" lon="2.500608044666957"><ele>65.85714285714286</ele><time>2026-04-16T10:27:27.999Z</time></trkpt><trkpt lat="49.15460832251625" lon="2.5006467859524024"><ele>66.0</ele><time>2026-04-16T10:27:30.999Z</time></trkpt><trkpt lat="49.154527841599915" lon="2.5006763009145936"><ele>66.16666666666667</ele><time>2026-04-16T10:27:34.999Z</time></trkpt><trkpt lat="49.15445104955075" lon="2.5007221771875408"><ele>66.33333333333333</ele><time>2026-04-16T10:27:38.999Z</time></trkpt><trkpt lat="49.154387434744706" lon="2.5007672943263652"><ele>66.5</ele><time>2026-04-16T10:27:42.998Z</time></trkpt><trkpt lat="49.154321216370256" lon="2.5008178276077655"><ele>66.66666666666666</ele><time>2026-04-16T10:27:46.998Z</time></trkpt><trkpt lat="49.15424623344179" lon="2.500863992897138"><ele>66.83333333333333</ele><time>2026-04-16T10:27:51.998Z</time></trkpt><trkpt lat="49.15418580112153" lon="2.500898347782055"><ele>67.0</ele><time>2026-04-16T10:27:55.998Z</time></trkpt><trkpt lat="49.154109089116005" lon="2.500937919620582"><ele>67.0</ele><time>2026-04-16T10:28:00.998Z</time></trkpt><trkpt lat="49.15404337018872" lon="2.5009737048953107"><ele>67.0</ele><time>2026-04-16T10:28:04.998Z</time></trkpt><trkpt lat="49.15397813139614" lon="2.5010130633577385"><ele>67.0</ele><time>2026-04-16T10:28:08.998Z</time></trkpt><trkpt lat="49.15391819893359" lon="2.5010617613219686"><ele>67.0</ele><time>2026-04-16T10:28:12.997Z</time></trkpt><trkpt lat="49.15384507323695" lon="2.5011113232629905"><ele>67.0</ele><time>2026-04-16T10:28:16.997Z</time></trkpt><trkpt lat="49.15376689380001" lon="2.501151046853927"><ele>67.0</ele><time>2026-04-16T10:28:20.997Z</time></trkpt><trkpt lat="49.15369650101221" lon="2.501183885348935"><ele>67.0</ele><time>2026-04-16T10:28:24.997Z</time></trkpt><trkpt lat="49.15363008426861" lon="2.501220887925644"><ele>67.0</ele><time>2026-04-16T10:28:28.997Z</time></trkpt><trkpt lat="49.15356537687374" lon="2.50126849555485"><ele>67.0</ele><time>2026-04-16T10:28:32Z</time></trkpt><trkpt lat="49.153490255612766" lon="2.5013072745641423"><ele>67.0</ele><time>2026-04-16T10:28:36Z</time></trkpt><trkpt lat="49.153418110483535" lon="2.501352253958136"><ele>67.0</ele><time>2026-04-16T10:28:40Z</time></trkpt><trkpt lat="49.15334465037808" lon="2.501392308243176"><ele>67.0</ele><time>2026-04-16T10:28:44Z</time></trkpt><trkpt lat="49.15326897578768" lon="2.5014373659905025"><ele>67.0</ele><time>2026-04-16T10:28:48Z</time></trkpt><trkpt lat="49.15320094757748" lon="2.5014761512598214"><ele>67.0</ele><time>2026-04-16T10:28:51Z</time></trkpt><trkpt lat="49.15313592259463" lon="2.5015208586058866"><ele>67.0</ele><time>2026-04-16T10:28:54Z</time></trkpt><trkpt lat="49.15306018574369" lon="2.50158067846606"><ele>67.0</ele><time>2026-04-16T10:28:58Z</time></trkpt><trkpt lat="49.153000260420946" lon="2.5016237788811924"><ele>67.0</ele><time>2026-04-16T10:29:01Z</time></trkpt><trkpt lat="49.152937478324375" lon="2.5016538502603813"><ele>67.0</ele><time>2026-04-16T10:29:04Z</time></trkpt><trkpt lat="49.15285877261266" lon="2.501686116180416"><ele>67.0</ele><time>2026-04-16T10:29:08Z</time></trkpt><trkpt lat="49.15279175437725" lon="2.5017303677845972"><ele>67.0</ele><time>2026-04-16T10:29:11Z</time></trkpt><trkpt lat="49.152716282652484" lon="2.501769190707192"><ele>67.0</ele><time>2026-04-16T10:29:14.999Z</time></trkpt><trkpt lat="49.152660108374306" lon="2.501814848810178"><ele>67.0</ele><time>2026-04-16T10:29:17.999Z</time></trkpt><trkpt lat="49.15259392101666" lon="2.501843204089881"><ele>67.0</ele><time>2026-04-16T10:29:20.999Z</time></trkpt><trkpt lat="49.15253150650562" lon="2.501877503819837"><ele>67.0</ele><time>2026-04-16T10:29:23.999Z</time></trkpt><trkpt lat="49.1524574536159" lon="2.5019201339747648"><ele>67.0</ele><time>2026-04-16T10:29:27.999Z</time></trkpt><trkpt lat="49.15238507291005" lon="2.5019672565006505"><ele>67.0</ele><time>2026-04-16T10:29:31.999Z</time></trkpt><trkpt lat="49.15232421877327" lon="2.502000649885914"><ele>67.0</ele><time>2026-04-16T10:29:34.999Z</time></trkpt><trkpt lat="49.15224749527969" lon="2.5020493150543817"><ele>66.85714285714286</ele><time>2026-04-16T10:29:38.999Z</time></trkpt><trkpt lat="49.152171789714956" lon="2.50210021429427"><ele>66.71428571428571</ele><time>2026-04-16T10:29:42.999Z</time></trkpt><trkpt lat="49.15210743688456" lon="2.5021269064527147"><ele>66.57142857142857</ele><time>2026-04-16T10:29:45.999Z</time></trkpt><trkpt lat="49.15204126926345" lon="2.5021627681332794"><ele>66.42857142857143</ele><time>2026-04-16T10:29:48.998Z</time></trkpt><trkpt lat="49.15197329313415" lon="2.502205663958341"><ele>66.28571428571429</ele><time>2026-04-16T10:29:51.998Z</time></trkpt><trkpt lat="49.1518999220326" lon="2.502259515487553"><ele>66.14285714285714</ele><time>2026-04-16T10:29:54.998Z</time></trkpt><trkpt lat="49.15184004676191" lon="2.502293772600251"><ele>66.0</ele><time>2026-04-16T10:29:57.998Z</time></trkpt><trkpt lat="49.151777865679975" lon="2.5023380968834075"><ele>66.0</ele><time>2026-04-16T10:30:00.998Z</time></trkpt><trkpt lat="49.15171310821541" lon="2.5023743379645493"><ele>66.0</ele><time>2026-04-16T10:30:03.998Z</time></trkpt><trkpt lat="49.15163566221526" lon="2.5024049768478704"><ele>66.0</ele><time>2026-04-16T10:30:07.998Z</time></trkpt><trkpt lat="49.15157186978986" lon="2.5024532408469193"><ele>66.0</ele><time>2026-04-16T10:30:10.998Z</time></trkpt><trkpt lat="49.15151056300571" lon="2.5024922817648476"><ele>66.0</ele><time>2026-04-16T10:30:13.998Z</time></trkpt><trkpt lat="49.15144842794442" lon="2.502534788273098"><ele>66.0</ele><time>2026-04-16T10:30:16.998Z</time></trkpt><trkpt lat="49.1513756627618" lon="2.5025728643255563"><ele>66.0</ele><time>2026-04-16T10:30:20.997Z</time></trkpt><trkpt lat="49.151313662795594" lon="2.502610427817008"><ele>66.42857142857143</ele><time>2026-04-16T10:30:23.997Z</time></trkpt><trkpt lat="49.15124764308293" lon="2.502653119696523"><ele>66.85714285714286</ele><time>2026-04-16T10:30:27.997Z</time></trkpt><trkpt lat="49.151170233192886" lon="2.502700004684988"><ele>67.28571428571429</ele><time>2026-04-16T10:30:31.997Z</time></trkpt><trkpt lat="49.15110096150766" lon="2.502746506492252"><ele>67.71428571428572</ele><time>2026-04-16T10:30:36Z</time></trkpt><trkpt lat="49.1510327721938" lon="2.5027893141238353"><ele>68.14285714285715</ele><time>2026-04-16T10:30:40Z</time></trkpt><trkpt lat="49.150961715138436" lon="2.502823994105527"><ele>68.57142857142857</ele><time>2026-04-16T10:30:44Z</time></trkpt><trkpt lat="49.150902097683115" lon="2.5028634527754963"><ele>69.0</ele><time>2026-04-16T10:30:47Z</time></trkpt><trkpt lat="49.15084230074847" lon="2.502904032712403"><ele>69.14285714285714</ele><time>2026-04-16T10:30:50Z</time></trkpt><trkpt lat="49.150772238751934" lon="2.502941191936954"><ele>69.28571428571429</ele><time>2026-04-16T10:30:55Z</time></trkpt><trkpt lat="49.15070397328907" lon="2.50298193509306"><ele>69.42857142857143</ele><time>2026-04-16T10:30:59Z</time></trkpt><trkpt lat="49.150636451223576" lon="2.503022391975643"><ele>69.57142857142857</ele><time>2026-04-16T10:31:03Z</time></trkpt><trkpt lat="49.15056071413873" lon="2.5030669084572073"><ele>69.71428571428572</ele><time>2026-04-16T10:31:08Z</time></trkpt><trkpt lat="49.15049727758987" lon="2.503112730533895"><ele>69.85714285714286</ele><time>2026-04-16T10:31:12Z</time></trkpt><trkpt lat="49.15043613984169" lon="2.5031579974624916"><ele>70.0</ele><time>2026-04-16T10:31:16Z</time></trkpt><trkpt lat="49.150375225103765" lon="2.503189131304248"><ele>70.0</ele><time>2026-04-16T10:31:19.999Z</time></trkpt><trkpt lat="49.15029386801831" lon="2.50322584216586"><ele>70.0</ele><time>2026-04-16T10:31:23.999Z</time></trkpt><trkpt lat="49.150224916991704" lon="2.5032728874756103"><ele>70.0</ele><time>2026-04-16T10:31:27.999Z</time></trkpt><trkpt lat="49.15015868125858" lon="2.5033125818693542"><ele>70.0</ele><time>2026-04-16T10:31:31.999Z</time></trkpt><trkpt lat="49.15008689468056" lon="2.503354925439282"><ele>70.0</ele><time>2026-04-16T10:31:35.999Z</time></trkpt><trkpt lat="49.150014436868695" lon="2.5033778034780396"><ele>70.0</ele><time>2026-04-16T10:31:38.999Z</time></trkpt><trkpt lat="49.149936719339145" lon="2.503430326313919"><ele>70.14285714285714</ele><time>2026-04-16T10:31:41.999Z</time></trkpt><trkpt lat="49.149860285182534" lon="2.503483700419787"><ele>70.28571428571428</ele><time>2026-04-16T10:31:44.999Z</time></trkpt><trkpt lat="49.149782278146596" lon="2.5035380310555118"><ele>70.42857142857143</ele><time>2026-04-16T10:31:47.999Z</time></trkpt><trkpt lat="49.1497164278266" lon="2.5035725658741863"><ele>70.57142857142857</ele><time>2026-04-16T10:31:49.999Z</time></trkpt><trkpt lat="49.14965256153577" lon="2.503601735533445"><ele>70.71428571428571</ele><time>2026-04-16T10:31:51.998Z</time></trkpt><trkpt lat="49.149589497336635" lon="2.5036418052317195"><ele>70.85714285714286</ele><time>2026-04-16T10:31:53.998Z</time></trkpt><trkpt lat="49.14952740798118" lon="2.5036820054650204"><ele>71.0</ele><time>2026-04-16T10:31:55.998Z</time></trkpt><trkpt lat="49.1494660633757" lon="2.5037276008956444"><ele>70.71428571428571</ele><time>2026-04-16T10:31:57.998Z</time></trkpt><trkpt lat="49.14940583716977" lon="2.503782578570254"><ele>70.42857142857142</ele><time>2026-04-16T10:32:05.998Z</time></trkpt><trkpt lat="49.149344129713626" lon="2.50382449003959"><ele>70.14285714285714</ele><time>2026-04-16T10:32:13.998Z</time></trkpt><trkpt lat="49.149283949652315" lon="2.5038592631737986"><ele>69.85714285714286</ele><time>2026-04-16T10:32:17.998Z</time></trkpt><trkpt lat="49.14921917738868" lon="2.5038969986798003"><ele>69.57142857142858</ele><time>2026-04-16T10:32:21.998Z</time></trkpt><trkpt lat="49.149156693053136" lon="2.503934663663509"><ele>69.28571428571429</ele><time>2026-04-16T10:32:25.997Z</time></trkpt><trkpt lat="49.14908478550172" lon="2.5039820441038665"><ele>69.0</ele><time>2026-04-16T10:32:29.997Z</time></trkpt><trkpt lat="49.14900992395128" lon="2.504021514392503"><ele>68.85714285714286</ele><time>2026-04-16T10:32:34.997Z</time></trkpt><trkpt lat="49.14894029895398" lon="2.504059925644285"><ele>68.71428571428572</ele><time>2026-04-16T10:32:38.997Z</time></trkpt><trkpt lat="49.14887037537795" lon="2.5040999195498475"><ele>68.57142857142857</ele><time>2026-04-16T10:32:42Z</time></trkpt><trkpt lat="49.148811312131215" lon="2.504136032407232"><ele>68.42857142857143</ele><time>2026-04-16T10:32:45Z</time></trkpt><trkpt lat="49.14874927939781" lon="2.504162822108619"><ele>68.28571428571428</ele><time>2026-04-16T10:32:48Z</time></trkpt><trkpt lat="49.14868739941134" lon="2.5042007854395476"><ele>68.14285714285714</ele><time>2026-04-16T10:32:51Z</time></trkpt><trkpt lat="49.14862311304499" lon="2.504284404569848"><ele>68.0</ele><time>2026-04-16T10:32:55Z</time></trkpt><trkpt lat="49.148557931949604" lon="2.504317813113014"><ele>67.99999999999999</ele><time>2026-04-16T10:32:59Z</time></trkpt><trkpt lat="49.14848039638479" lon="2.50435336380068"><ele>68.0</ele><time>2026-04-16T10:33:04Z</time></trkpt><trkpt lat="49.14841288716777" lon="2.504282150164651"><ele>68.0</ele><time>2026-04-16T10:33:08Z</time></trkpt><trkpt lat="49.14835522432418" lon="2.5042353516972056"><ele>68.0</ele><time>2026-04-16T10:33:11Z</time></trkpt><trkpt lat="49.14829333907676" lon="2.5041997538720406"><ele>68.0</ele><time>2026-04-16T10:33:15Z</time></trkpt><trkpt lat="49.148230529000315" lon="2.504140045395325"><ele>67.99999999999999</ele><time>2026-04-16T10:33:20Z</time></trkpt><trkpt lat="49.148169338462274" lon="2.5040854102066104"><ele>68.0</ele><time>2026-04-16T10:33:24Z</time></trkpt><trkpt lat="49.148102219493275" lon="2.5040143313006515"><ele>67.71428571428571</ele><time>2026-04-16T10:33:28.999Z</time></trkpt><trkpt lat="49.1480290583174" lon="2.503978196516472"><ele>67.42857142857143</ele><time>2026-04-16T10:33:32.999Z</time></trkpt><trkpt lat="49.147964360153004" lon="2.5039168944998287"><ele>67.14285714285714</ele><time>2026-04-16T10:33:37.999Z</time></trkpt><trkpt lat="49.14789636773058" lon="2.5038748044230323"><ele>66.85714285714286</ele><time>2026-04-16T10:33:42.999Z</time></trkpt><trkpt lat="49.14784423540521" lon="2.5038184546022713"><ele>66.57142857142857</ele><time>2026-04-16T10:33:46.999Z</time></trkpt><trkpt lat="49.147789009199215" lon="2.5037581784383387"><ele>66.28571428571428</ele><time>2026-04-16T10:33:50.999Z</time></trkpt><trkpt lat="49.147724970450746" lon="2.5037073241091696"><ele>66.0</ele><time>2026-04-16T10:33:54.999Z</time></trkpt><trkpt lat="49.147647844571566" lon="2.50366664840347"><ele>66.0</ele><time>2026-04-16T10:33:58.998Z</time></trkpt><trkpt lat="49.14758983282846" lon="2.5036021038914327"><ele>66.0</ele><time>2026-04-16T10:34:01.998Z</time></trkpt><trkpt lat="49.14753429469195" lon="2.50354867673751"><ele>66.0</ele><time>2026-04-16T10:34:04.998Z</time></trkpt><trkpt lat="49.147463070834654" lon="2.5034838266671384"><ele>66.0</ele><time>2026-04-16T10:34:08.998Z</time></trkpt><trkpt lat="49.147409960462696" lon="2.5034294386408993"><ele>66.0</ele><time>2026-04-16T10:34:11.998Z</time></trkpt><trkpt lat="49.14733946674936" lon="2.503373497603553"><ele>66.0</ele><time>2026-04-16T10:34:15.998Z</time></trkpt><trkpt lat="49.147279117815344" lon="2.503325509533803"><ele>66.0</ele><time>2026-04-16T10:34:19.998Z</time></trkpt><trkpt lat="49.14721086014773" lon="2.503267182029152"><ele>65.71428571428571</ele><time>2026-04-16T10:34:23.998Z</time></trkpt><trkpt lat="49.14714435000484" lon="2.503212586163349"><ele>65.42857142857143</ele><time>2026-04-16T10:34:28.998Z</time></trkpt><trkpt lat="49.14709518630258" lon="2.5031415920253903"><ele>65.14285714285714</ele><time>2026-04-16T10:34:33.997Z</time></trkpt><trkpt lat="49.1470215248671" lon="2.50309961622733"><ele>64.85714285714286</ele><time>2026-04-16T10:34:37.997Z</time></trkpt><trkpt lat="49.14695896587457" lon="2.5030351071663466"><ele>64.57142857142857</ele><time>2026-04-16T10:34:41.997Z</time></trkpt><trkpt lat="49.14690034486826" lon="2.5029912610346425"><ele>64.28571428571428</ele><time>2026-04-16T10:34:44.997Z</time></trkpt><trkpt lat="49.14683755781106" lon="2.5029511485141773"><ele>64.0</ele><time>2026-04-16T10:34:48Z</time></trkpt><trkpt lat="49.14678234847181" lon="2.502897602543235"><ele>63.99999999999999</ele><time>2026-04-16T10:34:51Z</time></trkpt><trkpt lat="49.14671918575602" lon="2.5028356955557842"><ele>64.0</ele><time>2026-04-16T10:34:55Z</time></trkpt><trkpt lat="49.14663875184812" lon="2.5027787222952385"><ele>64.0</ele><time>2026-04-16T10:34:59Z</time></trkpt><trkpt lat="49.14657480780714" lon="2.5027431561759927"><ele>64.0</ele><time>2026-04-16T10:35:02Z</time></trkpt><trkpt lat="49.14650454812768" lon="2.5026805372610768"><ele>63.99999999999999</ele><time>2026-04-16T10:35:06Z</time></trkpt><trkpt lat="49.14643586001223" lon="2.502616656033899"><ele>64.0</ele><time>2026-04-16T10:35:10Z</time></trkpt><trkpt lat="49.14636774300062" lon="2.502557406314884"><ele>64.66666666666666</ele><time>2026-04-16T10:35:14Z</time></trkpt><trkpt lat="49.146294210556064" lon="2.5025016652810255"><ele>65.33333333333333</ele><time>2026-04-16T10:35:18Z</time></trkpt><trkpt lat="49.14622923975518" lon="2.5024430629571666"><ele>66.0</ele><time>2026-04-16T10:35:22Z</time></trkpt><trkpt lat="49.14616468829318" lon="2.5023789114977695"><ele>66.66666666666667</ele><time>2026-04-16T10:35:26Z</time></trkpt><trkpt lat="49.146105228340375" lon="2.5023141794857504"><ele>67.33333333333334</ele><time>2026-04-16T10:35:30Z</time></trkpt><trkpt lat="49.1460425837078" lon="2.5022545629196196"><ele>68.0</ele><time>2026-04-16T10:35:33.999Z</time></trkpt><trkpt lat="49.14597446400963" lon="2.502193115452887"><ele>67.99999999999999</ele><time>2026-04-16T10:35:37.999Z</time></trkpt><trkpt lat="49.1459110827469" lon="2.5021661562039963"><ele>68.0</ele><time>2026-04-16T10:35:41.999Z</time></trkpt><trkpt lat="49.1458417057422" lon="2.5021825595509424"><ele>68.0</ele><time>2026-04-16T10:35:46.999Z</time></trkpt><trkpt lat="49.14582753334787" lon="2.5022825757826443"><ele>68.0</ele><time>2026-04-16T10:35:51.999Z</time></trkpt><trkpt lat="49.14581486022657" lon="2.502377296373779"><ele>68.0</ele><time>2026-04-16T10:35:55.999Z</time></trkpt><trkpt lat="49.14580310881962" lon="2.502496286513406"><ele>67.99999999999999</ele><time>2026-04-16T10:36:00.999Z</time></trkpt><trkpt lat="49.14579516159786" lon="2.5026000819587004"><ele>68.0</ele><time>2026-04-16T10:36:05.998Z</time></trkpt><trkpt lat="49.14578372025941" lon="2.5027016492578795"><ele>67.99999999999999</ele><time>2026-04-16T10:36:09.998Z</time></trkpt><trkpt lat="49.145772671667125" lon="2.5028089566456324"><ele>68.0</ele><time>2026-04-16T10:36:13.998Z</time></trkpt><trkpt lat="49.14575630127962" lon="2.5029039264495063"><ele>68.0</ele><time>2026-04-16T10:36:17.998Z</time></trkpt><trkpt lat="49.14573884239456" lon="2.5030075694740765"><ele>68.0</ele><time>2026-04-16T10:36:22.998Z</time></trkpt><trkpt lat="49.14572375440407" lon="2.5031097645016804"><ele>68.0</ele><time>2026-04-16T10:36:27.998Z</time></trkpt><trkpt lat="49.14570816889388" lon="2.5032073061499407"><ele>67.99999999999999</ele><time>2026-04-16T10:36:31.998Z</time></trkpt><trkpt lat="49.145694914628116" lon="2.503325312372626"><ele>68.0</ele><time>2026-04-16T10:36:36.998Z</time></trkpt><trkpt lat="49.145681738568356" lon="2.5034362085533997"><ele>68.71428571428571</ele><time>2026-04-16T10:36:41.997Z</time></trkpt><trkpt lat="49.145663216727776" lon="2.5035338222231833"><ele>69.42857142857143</ele><time>2026-04-16T10:36:45.997Z</time></trkpt><trkpt lat="49.14564491278366" lon="2.5036420453194066"><ele>70.14285714285714</ele><time>2026-04-16T10:36:50.997Z</time></trkpt><trkpt lat="49.14563044476614" lon="2.503759130572005"><ele>70.85714285714286</ele><time>2026-04-16T10:36:55Z</time></trkpt><trkpt lat="49.14561979262979" lon="2.5038662183379072"><ele>71.57142857142857</ele><time>2026-04-16T10:36:59Z</time></trkpt><trkpt lat="49.14560637636444" lon="2.5039814864390997"><ele>72.28571428571428</ele><time>2026-04-16T10:37:03Z</time></trkpt><trkpt lat="49.14558880302819" lon="2.5041008728635146"><ele>73.0</ele><time>2026-04-16T10:37:07Z</time></trkpt><trkpt lat="49.14556773088704" lon="2.5042026781624362"><ele>73.0</ele><time>2026-04-16T10:37:10Z</time></trkpt><trkpt lat="49.145551978095774" lon="2.5043189593471467"><ele>73.0</ele><time>2026-04-16T10:37:14Z</time></trkpt><trkpt lat="49.145504322515215" lon="2.5043910601693664"><ele>73.0</ele><time>2026-04-16T10:37:18Z</time></trkpt><trkpt lat="49.145441083005025" lon="2.5044044948159976"><ele>73.0</ele><time>2026-04-16T10:37:22Z</time></trkpt><trkpt lat="49.14536449121823" lon="2.5044327952825394"><ele>73.0</ele><time>2026-04-16T10:37:26Z</time></trkpt><trkpt lat="49.14529164171399" lon="2.5044393392151845"><ele>73.0</ele><time>2026-04-16T10:37:29Z</time></trkpt><trkpt lat="49.14522707738046" lon="2.5044403954311156"><ele>73.0</ele><time>2026-04-16T10:37:32Z</time></trkpt><trkpt lat="49.14515886733703" lon="2.504441001003073"><ele>73.0</ele><time>2026-04-16T10:37:35Z</time></trkpt><trkpt lat="49.14508830605388" lon="2.504441549638251"><ele>73.0</ele><time>2026-04-16T10:37:37.999Z</time></trkpt><trkpt lat="49.14502354673325" lon="2.5044466237625684"><ele>73.0</ele><time>2026-04-16T10:37:40.999Z</time></trkpt><trkpt lat="49.14495859879815" lon="2.504450513958167"><ele>73.0</ele><time>2026-04-16T10:37:43.999Z</time></trkpt><trkpt lat="49.14489441772779" lon="2.504462085508821"><ele>73.0</ele><time>2026-04-16T10:37:46.999Z</time></trkpt><trkpt lat="49.14482340035587" lon="2.504466961256849"><ele>73.0</ele><time>2026-04-16T10:37:49.999Z</time></trkpt><trkpt lat="49.14474521726452" lon="2.504464214758333"><ele>73.0</ele><time>2026-04-16T10:37:53.999Z</time></trkpt><trkpt lat="49.144666531605345" lon="2.5044773334360233"><ele>73.5</ele><time>2026-04-16T10:37:57.999Z</time></trkpt><trkpt lat="49.14458681894456" lon="2.5044822170308856"><ele>74.0</ele><time>2026-04-16T10:38:01.999Z</time></trkpt><trkpt lat="49.144505912429196" lon="2.5044812779279733"><ele>74.5</ele><time>2026-04-16T10:38:05.999Z</time></trkpt><trkpt lat="49.14442697643393" lon="2.5044862773072265"><ele>75.0</ele><time>2026-04-16T10:38:09.998Z</time></trkpt><trkpt lat="49.14434294010691" lon="2.5044930956618283"><ele>75.5</ele><time>2026-04-16T10:38:14.998Z</time></trkpt><trkpt lat="49.144268167056254" lon="2.5044996013483733"><ele>76.0</ele><time>2026-04-16T10:38:18.998Z</time></trkpt><trkpt lat="49.14419396792445" lon="2.504497135182168"><ele>76.0</ele><time>2026-04-16T10:38:22.998Z</time></trkpt><trkpt lat="49.14413019659053" lon="2.504504444280702"><ele>76.0</ele><time>2026-04-16T10:38:26.998Z</time></trkpt><trkpt lat="49.144069976707875" lon="2.5044659489131633"><ele>76.0</ele><time>2026-04-16T10:38:31.998Z</time></trkpt><trkpt lat="49.14400956646087" lon="2.5044946172336062"><ele>76.0</ele><time>2026-04-16T10:38:35.998Z</time></trkpt><trkpt lat="49.14394048878902" lon="2.5044940454815072"><ele>76.0</ele><time>2026-04-16T10:38:39.998Z</time></trkpt><trkpt lat="49.143869159486265" lon="2.5045024268580383"><ele>76.0</ele><time>2026-04-16T10:38:43.997Z</time></trkpt><trkpt lat="49.143803451679915" lon="2.504503302724363"><ele>76.0</ele><time>2026-04-16T10:38:47.997Z</time></trkpt><trkpt lat="49.14372384520001" lon="2.5045096678510346"><ele>76.28571428571428</ele><time>2026-04-16T10:38:51.997Z</time></trkpt><trkpt lat="49.14365300119548" lon="2.5045129236547212"><ele>76.57142857142858</ele><time>2026-04-16T10:38:55.997Z</time></trkpt><trkpt lat="49.14357926420153" lon="2.504516335398554"><ele>76.85714285714286</ele><time>2026-04-16T10:39:00Z</time></trkpt><trkpt lat="49.14349996968605" lon="2.504519115111728"><ele>77.14285714285714</ele><time>2026-04-16T10:39:04Z</time></trkpt><trkpt lat="49.14342709315804" lon="2.5045036721759435"><ele>77.42857142857142</ele><time>2026-04-16T10:39:08Z</time></trkpt><trkpt lat="49.14336072773795" lon="2.50452760556372"><ele>77.71428571428572</ele><time>2026-04-16T10:39:12Z</time></trkpt><trkpt lat="49.143286427486345" lon="2.5045301441779944"><ele>78.0</ele><time>2026-04-16T10:39:16Z</time></trkpt><trkpt lat="49.14320729312632" lon="2.5045349539790145"><ele>78.0</ele><time>2026-04-16T10:39:20Z</time></trkpt><trkpt lat="49.143143460990615" lon="2.504530345182422"><ele>78.0</ele><time>2026-04-16T10:39:23Z</time></trkpt><trkpt lat="49.14306515867814" lon="2.5045241703929815"><ele>78.0</ele><time>2026-04-16T10:39:27Z</time></trkpt><trkpt lat="49.14298414163872" lon="2.504532776968482"><ele>78.0</ele><time>2026-04-16T10:39:31Z</time></trkpt><trkpt lat="49.1429066555957" lon="2.5045331865043026"><ele>78.0</ele><time>2026-04-16T10:39:35Z</time></trkpt><trkpt lat="49.14282373714048" lon="2.504540504687979"><ele>78.0</ele><time>2026-04-16T10:39:39Z</time></trkpt><trkpt lat="49.14274696887882" lon="2.5045439093167046"><ele>78.0</ele><time>2026-04-16T10:39:43.999Z</time></trkpt><trkpt lat="49.142668459723396" lon="2.504546336803866"><ele>78.0</ele><time>2026-04-16T10:39:48.999Z</time></trkpt><trkpt lat="49.14258860836361" lon="2.5045505864254447"><ele>78.0</ele><time>2026-04-16T10:39:53.999Z</time></trkpt><trkpt lat="49.14251760183882" lon="2.5045509993320683"><ele>78.0</ele><time>2026-04-16T10:39:57.999Z</time></trkpt><trkpt lat="49.14245438148002" lon="2.5045502052237536"><ele>78.0</ele><time>2026-04-16T10:40:01.999Z</time></trkpt><trkpt lat="49.14238737652985" lon="2.5045539831600165"><ele>78.0</ele><time>2026-04-16T10:40:05.999Z</time></trkpt><trkpt lat="49.14231725939505" lon="2.5045643070830095"><ele>78.0</ele><time>2026-04-16T10:40:09.999Z</time></trkpt><trkpt lat="49.14224829443181" lon="2.5045684182872017"><ele>77.71428571428572</ele><time>2026-04-16T10:40:13.999Z</time></trkpt><trkpt lat="49.14217307241411" lon="2.5045678295678417"><ele>77.42857142857142</ele><time>2026-04-16T10:40:17.998Z</time></trkpt><trkpt lat="49.142100909036515" lon="2.5045613954185195"><ele>77.14285714285714</ele><time>2026-04-16T10:40:21.998Z</time></trkpt><trkpt lat="49.14203208508016" lon="2.5045735377384606"><ele>76.85714285714286</ele><time>2026-04-16T10:40:25.998Z</time></trkpt><trkpt lat="49.14196385536745" lon="2.504574371555452"><ele>76.57142857142858</ele><time>2026-04-16T10:40:29.998Z</time></trkpt><trkpt lat="49.14188328280964" lon="2.5045864712266317"><ele>76.28571428571428</ele><time>2026-04-16T10:40:33.998Z</time></trkpt><trkpt lat="49.14181298278762" lon="2.5045759240157373"><ele>76.0</ele><time>2026-04-16T10:40:36.998Z</time></trkpt><trkpt lat="49.14174180719443" lon="2.504585939274848"><ele>76.0</ele><time>2026-04-16T10:40:39.998Z</time></trkpt><trkpt lat="49.14166293932813" lon="2.5045808619252328"><ele>76.0</ele><time>2026-04-16T10:40:43.998Z</time></trkpt><trkpt lat="49.141585751326716" lon="2.5045807712832007"><ele>76.0</ele><time>2026-04-16T10:40:46.998Z</time></trkpt><trkpt lat="49.14151944201348" lon="2.504589254115059"><ele>76.0</ele><time>2026-04-16T10:40:49.997Z</time></trkpt><trkpt lat="49.141437251091276" lon="2.50458397798838"><ele>76.0</ele><time>2026-04-16T10:40:53.997Z</time></trkpt><trkpt lat="49.14136699408768" lon="2.5045827656917514"><ele>76.0</ele><time>2026-04-16T10:40:56.997Z</time></trkpt><trkpt lat="49.14130351265127" lon="2.5045849380891965"><ele>76.0</ele><time>2026-04-16T10:40:59.997Z</time></trkpt><trkpt lat="49.14123744078674" lon="2.5045911498445435"><ele>75.85714285714285</ele><time>2026-04-16T10:41:02.997Z</time></trkpt><trkpt lat="49.14114773579556" lon="2.5045918138163215"><ele>75.71428571428572</ele><time>2026-04-16T10:41:07Z</time></trkpt><trkpt lat="49.14107905206659" lon="2.5045855303855413"><ele>75.57142857142857</ele><time>2026-04-16T10:41:10Z</time></trkpt><trkpt lat="49.14100859242978" lon="2.5045844276572056"><ele>75.42857142857142</ele><time>2026-04-16T10:41:13Z</time></trkpt><trkpt lat="49.14094384605183" lon="2.5045963481500735"><ele>75.28571428571428</ele><time>2026-04-16T10:41:16Z</time></trkpt><trkpt lat="49.140870074317284" lon="2.5045892294388463"><ele>75.14285714285714</ele><time>2026-04-16T10:41:19Z</time></trkpt><trkpt lat="49.140806997619684" lon="2.5045907011362716"><ele>75.0</ele><time>2026-04-16T10:41:22Z</time></trkpt><trkpt lat="49.14073755863586" lon="2.504599341162834"><ele>74.85714285714285</ele><time>2026-04-16T10:41:25Z</time></trkpt><trkpt lat="49.140658765589045" lon="2.5046017407770207"><ele>74.71428571428571</ele><time>2026-04-16T10:41:29Z</time></trkpt><trkpt lat="49.14057596112377" lon="2.5046012063207255"><ele>74.57142857142857</ele><time>2026-04-16T10:41:33Z</time></trkpt><trkpt lat="49.14051076304985" lon="2.504603441593939"><ele>74.42857142857142</ele><time>2026-04-16T10:41:36Z</time></trkpt><trkpt lat="49.140447769221055" lon="2.504606061792695"><ele>74.28571428571428</ele><time>2026-04-16T10:41:39Z</time></trkpt><trkpt lat="49.1403826444082" lon="2.5046067764262667"><ele>74.14285714285714</ele><time>2026-04-16T10:41:42Z</time></trkpt><trkpt lat="49.140318621591405" lon="2.504615613645975"><ele>74.0</ele><time>2026-04-16T10:41:44.999Z</time></trkpt><trkpt lat="49.140244570478465" lon="2.504621920344889"><ele>74.0</ele><time>2026-04-16T10:41:48.999Z</time></trkpt><trkpt lat="49.14016959148217" lon="2.5046197539769453"><ele>74.0</ele><time>2026-04-16T10:41:52.999Z</time></trkpt><trkpt lat="49.14008469241892" lon="2.504611195775026"><ele>74.0</ele><time>2026-04-16T10:41:56.999Z</time></trkpt><trkpt lat="49.140017225164684" lon="2.5046240331246064"><ele>74.0</ele><time>2026-04-16T10:41:59.999Z</time></trkpt><trkpt lat="49.13994855881791" lon="2.504633461456214"><ele>74.0</ele><time>2026-04-16T10:42:02.999Z</time></trkpt><trkpt lat="49.13986192059335" lon="2.504623983318016"><ele>74.0</ele><time>2026-04-16T10:42:06.999Z</time></trkpt><trkpt lat="49.139794553980025" lon="2.5046318176131597"><ele>74.16666666666667</ele><time>2026-04-16T10:42:09.999Z</time></trkpt><trkpt lat="49.13972268254648" lon="2.504622866358989"><ele>74.33333333333334</ele><time>2026-04-16T10:42:12.999Z</time></trkpt><trkpt lat="49.139647614306014" lon="2.504633491349685"><ele>74.5</ele><time>2026-04-16T10:42:15.999Z</time></trkpt><trkpt lat="49.13956318141425" lon="2.5046354025287"><ele>74.66666666666667</ele><time>2026-04-16T10:42:19.998Z</time></trkpt><trkpt lat="49.139485097921835" lon="2.504639560734787"><ele>74.83333333333333</ele><time>2026-04-16T10:42:23.998Z</time></trkpt><trkpt lat="49.139409657753276" lon="2.5046446140077614"><ele>75.0</ele><time>2026-04-16T10:42:27.998Z</time></trkpt><trkpt lat="49.13933420646255" lon="2.5046457169003444"><ele>74.99999999999999</ele><time>2026-04-16T10:42:31.998Z</time></trkpt><trkpt lat="49.13926513723766" lon="2.5046475333704215"><ele>75.0</ele><time>2026-04-16T10:42:35.998Z</time></trkpt><trkpt lat="49.13919641161988" lon="2.504641941033201"><ele>75.0</ele><time>2026-04-16T10:42:38.998Z</time></trkpt><trkpt lat="49.139119265504064" lon="2.504636663752669"><ele>75.0</ele><time>2026-04-16T10:42:41.998Z</time></trkpt><trkpt lat="49.1390539952006" lon="2.5046427267415"><ele>75.0</ele><time>2026-04-16T10:42:45.998Z</time></trkpt><trkpt lat="49.13898209283248" lon="2.5046527380161883"><ele>74.99999999999999</ele><time>2026-04-16T10:42:52.997Z</time></trkpt><trkpt lat="49.13890509656295" lon="2.5046427377272615"><ele>75.0</ele><time>2026-04-16T10:42:56.997Z</time></trkpt><trkpt lat="49.13882216234565" lon="2.50464403504646"><ele>75.14285714285714</ele><time>2026-04-16T10:43:00.997Z</time></trkpt><trkpt lat="49.13875408529717" lon="2.5046474051575074"><ele>75.28571428571428</ele><time>2026-04-16T10:43:04.997Z</time></trkpt><trkpt lat="49.13868911791869" lon="2.50465392353569"><ele>75.42857142857142</ele><time>2026-04-16T10:43:07.997Z</time></trkpt><trkpt lat="49.138625771311624" lon="2.5046596038718802"><ele>75.57142857142857</ele><time>2026-04-16T10:43:10.997Z</time></trkpt><trkpt lat="49.138540638566155" lon="2.504662277400964"><ele>75.71428571428572</ele><time>2026-04-16T10:43:15Z</time></trkpt><trkpt lat="49.13847852603563" lon="2.5046801099727056"><ele>75.85714285714285</ele><time>2026-04-16T10:43:18Z</time></trkpt><trkpt lat="49.13839384465857" lon="2.5047004542862776"><ele>76.0</ele><time>2026-04-16T10:43:22Z</time></trkpt><trkpt lat="49.138311875821906" lon="2.5047097141754104"><ele>76.0</ele><time>2026-04-16T10:43:26Z</time></trkpt><trkpt lat="49.13824174845431" lon="2.504724128623325"><ele>76.0</ele><time>2026-04-16T10:43:29Z</time></trkpt><trkpt lat="49.13817162600786" lon="2.504740342254993"><ele>76.0</ele><time>2026-04-16T10:43:32Z</time></trkpt><trkpt lat="49.138107374547936" lon="2.5047523368375213"><ele>76.0</ele><time>2026-04-16T10:43:35Z</time></trkpt><trkpt lat="49.138031980831954" lon="2.5047718918096082"><ele>76.0</ele><time>2026-04-16T10:43:39Z</time></trkpt><trkpt lat="49.13796684899427" lon="2.504838150303826"><ele>76.0</ele><time>2026-04-16T10:43:43Z</time></trkpt><trkpt lat="49.13792026313339" lon="2.5049367555154096"><ele>76.0</ele><time>2026-04-16T10:43:47Z</time></trkpt><trkpt lat="49.137863737245674" lon="2.5050233962681876"><ele>76.14285714285714</ele><time>2026-04-16T10:43:51Z</time></trkpt><trkpt lat="49.137808372114996" lon="2.5050759426269016"><ele>76.28571428571429</ele><time>2026-04-16T10:43:53.999Z</time></trkpt><trkpt lat="49.13773399427737" lon="2.505132100259824"><ele>76.42857142857143</ele><time>2026-04-16T10:43:57.999Z</time></trkpt><trkpt lat="49.13767548368156" lon="2.505196647767561"><ele>76.57142857142857</ele><time>2026-04-16T10:44:01.999Z</time></trkpt><trkpt lat="49.13762208611686" lon="2.5052695176496598"><ele>76.71428571428572</ele><time>2026-04-16T10:44:05.999Z</time></trkpt><trkpt lat="49.137581646939076" lon="2.5053464450744465"><ele>76.85714285714286</ele><time>2026-04-16T10:44:09.999Z</time></trkpt><trkpt lat="49.13753857474443" lon="2.505445889193785"><ele>77.0</ele><time>2026-04-16T10:44:14.999Z</time></trkpt><trkpt lat="49.13749960468761" lon="2.505524471488814"><ele>76.5</ele><time>2026-04-16T10:44:18.999Z</time></trkpt><trkpt lat="49.13743405241981" lon="2.5056020464955373"><ele>76.0</ele><time>2026-04-16T10:44:23.999Z</time></trkpt><trkpt lat="49.137384904398765" lon="2.505666073753999"><ele>75.5</ele><time>2026-04-16T10:44:27.998Z</time></trkpt><trkpt lat="49.13734816231372" lon="2.5057551097417665"><ele>75.0</ele><time>2026-04-16T10:44:31.998Z</time></trkpt><trkpt lat="49.13728189310099" lon="2.505840501797181"><ele>74.5</ele><time>2026-04-16T10:44:36.998Z</time></trkpt><trkpt lat="49.13722367797966" lon="2.5059296799653272"><ele>74.0</ele><time>2026-04-16T10:44:40.998Z</time></trkpt><trkpt lat="49.13717067240384" lon="2.506009804841302"><ele>74.85714285714286</ele><time>2026-04-16T10:44:44.998Z</time></trkpt><trkpt lat="49.1371292777078" lon="2.506092327031029"><ele>75.71428571428571</ele><time>2026-04-16T10:44:48.998Z</time></trkpt><trkpt lat="49.13708271271251" lon="2.5061904572715736"><ele>76.57142857142857</ele><time>2026-04-16T10:44:53.998Z</time></trkpt><trkpt lat="49.13703967512554" lon="2.506267378720713"><ele>77.42857142857143</ele><time>2026-04-16T10:44:57.998Z</time></trkpt><trkpt lat="49.136994666196586" lon="2.50635038322599"><ele>78.28571428571429</ele><time>2026-04-16T10:45:01.997Z</time></trkpt><trkpt lat="49.136938448786715" lon="2.50642937911098"><ele>79.14285714285714</ele><time>2026-04-16T10:45:06.997Z</time></trkpt><trkpt lat="49.13688430488788" lon="2.506513359380118"><ele>80.0</ele><time>2026-04-16T10:45:11.997Z</time></trkpt><trkpt lat="49.13682451515131" lon="2.506576617467531"><ele>80.0</ele><time>2026-04-16T10:45:16.997Z</time></trkpt><trkpt lat="49.136761613534524" lon="2.506636349502808"><ele>80.0</ele><time>2026-04-16T10:45:21Z</time></trkpt><trkpt lat="49.13671651704347" lon="2.506708735593731"><ele>80.0</ele><time>2026-04-16T10:45:32Z</time></trkpt><trkpt lat="49.13665813305182" lon="2.50675789149431"><ele>80.0</ele><time>2026-04-16T10:45:37Z</time></trkpt><trkpt lat="49.13659113124831" lon="2.5068003044585963"><ele>80.0</ele><time>2026-04-16T10:45:41Z</time></trkpt><trkpt lat="49.13653473451772" lon="2.5068472221888918"><ele>80.0</ele><time>2026-04-16T10:45:45Z</time></trkpt><trkpt lat="49.13647662213784" lon="2.5068973231324065"><ele>80.0</ele><time>2026-04-16T10:45:48Z</time></trkpt><trkpt lat="49.13641277158804" lon="2.5069364899633264"><ele>80.14285714285714</ele><time>2026-04-16T10:45:51Z</time></trkpt><trkpt lat="49.13635482098034" lon="2.506992358663343"><ele>80.28571428571429</ele><time>2026-04-16T10:45:55Z</time></trkpt><trkpt lat="49.136296979968314" lon="2.5070528801499394"><ele>80.42857142857143</ele><time>2026-04-16T10:45:58Z</time></trkpt><trkpt lat="49.136275242109534" lon="2.507147116896704"><ele>80.57142857142857</ele><time>2026-04-16T10:45:59Z</time></trkpt><trkpt lat="49.1362065120336" lon="2.507131372660428"><ele>80.71428571428571</ele><time>2026-04-16T10:46:00.999Z</time></trkpt><trkpt lat="49.13613170685002" lon="2.507127616122954"><ele>80.85714285714286</ele><time>2026-04-16T10:46:04.999Z</time></trkpt><trkpt lat="49.13607214345903" lon="2.507073023902742"><ele>81.0</ele><time>2026-04-16T10:46:10.999Z</time></trkpt><trkpt lat="49.136006518666385" lon="2.507039108101166"><ele>80.14285714285714</ele><time>2026-04-16T10:46:14.999Z</time></trkpt><trkpt lat="49.13596233898194" lon="2.5071090143718053"><ele>79.28571428571428</ele><time>2026-04-16T10:46:17.999Z</time></trkpt><trkpt lat="49.13590694303622" lon="2.507160223864175"><ele>78.42857142857142</ele><time>2026-04-16T10:46:20.999Z</time></trkpt><trkpt lat="49.13583754178395" lon="2.5072238428495077"><ele>77.57142857142857</ele><time>2026-04-16T10:46:24.999Z</time></trkpt><trkpt lat="49.13576104857886" lon="2.507212373345702"><ele>76.71428571428571</ele><time>2026-04-16T10:46:27.999Z</time></trkpt><trkpt lat="49.13568200373683" lon="2.507183496451978"><ele>75.85714285714285</ele><time>2026-04-16T10:46:31.999Z</time></trkpt><trkpt lat="49.135619295727466" lon="2.507172262563989"><ele>75.0</ele><time>2026-04-16T10:46:34.999Z</time></trkpt><trkpt lat="49.13555326933245" lon="2.5071578494472893"><ele>74.99999999999999</ele><time>2026-04-16T10:46:37.998Z</time></trkpt><trkpt lat="49.13548447691299" lon="2.5071539459563037"><ele>75.0</ele><time>2026-04-16T10:46:40.998Z</time></trkpt><trkpt lat="49.13541621332168" lon="2.5071376683763544"><ele>75.0</ele><time>2026-04-16T10:46:43.998Z</time></trkpt><trkpt lat="49.13535118160636" lon="2.5071268448057076"><ele>75.0</ele><time>2026-04-16T10:46:46.998Z</time></trkpt><trkpt lat="49.135284110232256" lon="2.507124458883095"><ele>75.0</ele><time>2026-04-16T10:46:49.998Z</time></trkpt><trkpt lat="49.13520791732849" lon="2.5071663887090527"><ele>74.99999999999999</ele><time>2026-04-16T10:46:53.998Z</time></trkpt><trkpt lat="49.135143638618445" lon="2.507129294757746"><ele>75.0</ele><time>2026-04-16T10:46:56.998Z</time></trkpt><trkpt lat="49.13506993146432" lon="2.507118249166246"><ele>74.99999999999999</ele><time>2026-04-16T10:47:00.998Z</time></trkpt><trkpt lat="49.13499604983458" lon="2.507099273320155"><ele>75.0</ele><time>2026-04-16T10:47:04.998Z</time></trkpt><trkpt lat="49.134922813529826" lon="2.507082001025045"><ele>75.0</ele><time>2026-04-16T10:47:08.998Z</time></trkpt><trkpt lat="49.134849409523184" lon="2.507062595734705"><ele>75.0</ele><time>2026-04-16T10:47:12.997Z</time></trkpt><trkpt lat="49.13478478379803" lon="2.507038585038575"><ele>75.0</ele><time>2026-04-16T10:47:16.997Z</time></trkpt><trkpt lat="49.1347203719914" lon="2.507026447286062"><ele>74.99999999999999</ele><time>2026-04-16T10:47:20.997Z</time></trkpt><trkpt lat="49.134653793013364" lon="2.5069995289638407"><ele>75.0</ele><time>2026-04-16T10:47:25Z</time></trkpt><trkpt lat="49.13459191218514" lon="2.506965497723363"><ele>75.71428571428571</ele><time>2026-04-16T10:47:29Z</time></trkpt><trkpt lat="49.13452666469823" lon="2.5069321142686043"><ele>76.42857142857143</ele><time>2026-04-16T10:47:33Z</time></trkpt><trkpt lat="49.13446047789977" lon="2.506888655533026"><ele>77.14285714285714</ele><time>2026-04-16T10:47:37Z</time></trkpt><trkpt lat="49.13439629350421" lon="2.5068569454211524"><ele>77.85714285714286</ele><time>2026-04-16T10:47:41Z</time></trkpt><trkpt lat="49.13434633691205" lon="2.506791550691472"><ele>78.57142857142857</ele><time>2026-04-16T10:47:45Z</time></trkpt><trkpt lat="49.134285247172784" lon="2.506765346727808"><ele>79.28571428571428</ele><time>2026-04-16T10:47:49Z</time></trkpt><trkpt lat="49.13421439215199" lon="2.5067815678940533"><ele>80.0</ele><time>2026-04-16T10:47:55Z</time></trkpt><trkpt lat="49.13417503028967" lon="2.5068592764747"><ele>80.0</ele><time>2026-04-16T10:48:00Z</time></trkpt><trkpt lat="49.13413889692064" lon="2.5069804873178225"><ele>80.0</ele><time>2026-04-16T10:48:03.999Z</time></trkpt><trkpt lat="49.13408839348633" lon="2.50709896531204"><ele>80.0</ele><time>2026-04-16T10:48:06.999Z</time></trkpt><trkpt lat="49.134057241742696" lon="2.5071930065891856"><ele>80.0</ele><time>2026-04-16T10:48:08.999Z</time></trkpt><trkpt lat="49.134023357432966" lon="2.5072923317049596"><ele>80.0</ele><time>2026-04-16T10:48:10.999Z</time></trkpt><trkpt lat="49.133987921821095" lon="2.5073981785839283"><ele>80.0</ele><time>2026-04-16T10:48:12.999Z</time></trkpt><trkpt lat="49.13395134498926" lon="2.5075046956641445"><ele>79.71428571428571</ele><time>2026-04-16T10:48:14.999Z</time></trkpt><trkpt lat="49.13391088996911" lon="2.5076030259138955"><ele>79.42857142857143</ele><time>2026-04-16T10:48:16.999Z</time></trkpt><trkpt lat="49.13387137586099" lon="2.5077009421189818"><ele>79.14285714285714</ele><time>2026-04-16T10:48:18.999Z</time></trkpt><trkpt lat="49.13383637981627" lon="2.507783717457693"><ele>78.85714285714286</ele><time>2026-04-16T10:48:20.999Z</time></trkpt><trkpt lat="49.13379620024166" lon="2.507896757570515"><ele>78.57142857142857</ele><time>2026-04-16T10:48:23.999Z</time></trkpt><trkpt lat="49.1337556356889" lon="2.50799628565015"><ele>78.28571428571429</ele><time>2026-04-16T10:48:26.999Z</time></trkpt><trkpt lat="49.13369776638923" lon="2.5080370692220253"><ele>78.0</ele><time>2026-04-16T10:48:36.999Z</time></trkpt><trkpt lat="49.13365062111455" lon="2.5079639799837925"><ele>78.0</ele><time>2026-04-16T10:48:45.998Z</time></trkpt><trkpt lat="49.13371486301401" lon="2.5079546884234634"><ele>78.0</ele><time>2026-04-16T10:49:10.997Z</time></trkpt><trkpt lat="49.13365193477859" lon="2.5079739320700045"><ele>78.0</ele><time>2026-04-16T10:49:19.997Z</time></trkpt><trkpt lat="49.133577934641266" lon="2.5078339704401653"><ele>77.0</ele><time>2026-04-16T10:49:59.999Z</time></trkpt><trkpt lat="49.133561167184574" lon="2.507934743161825"><ele>78.0</ele><time>2026-04-16T10:50:18.999Z</time></trkpt></trkseg></trk></gpx>